<?xml version="1.0" encoding="UTF-8"?>
<gpx version="1.1" creator="https://www.youtrack.es" xsi:schemaLocation="http://www.topografix.com/GPX/1/1 http://www.topografix.com/GPX/1/1/gpx.xsd http://www.garmin.com/xmlschemas/GpxExtensions/v3 http://www.garmin.com/xmlschemas/GpxExtensionsv3.xsd http://www.garmin.com/xmlschemas/TrackPointExtension/v1 http://www.garmin.com/xmlschemas/TrackPointExtensionv1.xsd" xmlns:gpxtpx="http://www.garmin.com/xmlschemas/TrackPointExtension/v1" xmlns:gpxx="http://www.garmin.com/xmlschemas/GpxExtensions/v3" xmlns:xsi="http://www.w3.org/2001/XMLSchema-instance">
  <metadata>
    <link href="https://www.youtrack.es">
      <text>YouTrack.es</text>
    </link>
    <time>2026-05-09T01:16:23Z</time>
  </metadata>
  <trk>
    <src>https://www.youtrack.es</src>
    <link href="https://www.youtrack.es/ruta/9163-poblet-cogullons">
      <text>YouTrack.es</text>
    </link>
    <trkseg>
      <trkpt lat="41.337404" lon="1.055364">
        <ele>776.48</ele>
        <time>2017-09-17T10:59:41Z</time>
      </trkpt>
      <trkpt lat="41.337547" lon="1.055691">
        <ele>775.98</ele>
        <time>2017-09-17T10:59:43Z</time>
      </trkpt>
      <trkpt lat="41.337694" lon="1.055891">
        <ele>774.47</ele>
        <time>2017-09-17T11:00:01Z</time>
      </trkpt>
      <trkpt lat="41.337793" lon="1.055975">
        <ele>772.09</ele>
        <time>2017-09-17T11:00:16Z</time>
      </trkpt>
      <trkpt lat="41.337874" lon="1.055956">
        <ele>772.09</ele>
        <time>2017-09-17T11:00:25Z</time>
      </trkpt>
      <trkpt lat="41.338160" lon="1.056220">
        <ele>770.15</ele>
        <time>2017-09-17T11:00:42Z</time>
      </trkpt>
      <trkpt lat="41.338512" lon="1.056537">
        <ele>765.83</ele>
        <time>2017-09-17T11:01:00Z</time>
      </trkpt>
      <trkpt lat="41.338706" lon="1.056635">
        <ele>763.43</ele>
        <time>2017-09-17T11:01:09Z</time>
      </trkpt>
      <trkpt lat="41.338796" lon="1.056656">
        <ele>763.41</ele>
        <time>2017-09-17T11:01:13Z</time>
      </trkpt>
      <trkpt lat="41.339168" lon="1.056765">
        <ele>762.91</ele>
        <time>2017-09-17T11:01:28Z</time>
      </trkpt>
      <trkpt lat="41.339492" lon="1.056794">
        <ele>764.35</ele>
        <time>2017-09-17T11:01:43Z</time>
      </trkpt>
      <trkpt lat="41.339779" lon="1.056773">
        <ele>765.35</ele>
        <time>2017-09-17T11:01:58Z</time>
      </trkpt>
      <trkpt lat="41.340147" lon="1.056806">
        <ele>766.33</ele>
        <time>2017-09-17T11:02:11Z</time>
      </trkpt>
      <trkpt lat="41.340569" lon="1.056852">
        <ele>763.93</ele>
        <time>2017-09-17T11:02:27Z</time>
      </trkpt>
      <trkpt lat="41.340943" lon="1.056905">
        <ele>761.98</ele>
        <time>2017-09-17T11:02:43Z</time>
      </trkpt>
      <trkpt lat="41.341312" lon="1.056977">
        <ele>759.58</ele>
        <time>2017-09-17T11:02:57Z</time>
      </trkpt>
      <trkpt lat="41.341702" lon="1.057116">
        <ele>758.62</ele>
        <time>2017-09-17T11:03:12Z</time>
      </trkpt>
      <trkpt lat="41.341998" lon="1.057382">
        <ele>755.71</ele>
        <time>2017-09-17T11:03:26Z</time>
      </trkpt>
      <trkpt lat="41.342270" lon="1.057607">
        <ele>753.82</ele>
        <time>2017-09-17T11:03:39Z</time>
      </trkpt>
      <trkpt lat="41.342584" lon="1.057868">
        <ele>749.97</ele>
        <time>2017-09-17T11:03:56Z</time>
      </trkpt>
      <trkpt lat="41.342965" lon="1.057995">
        <ele>748.51</ele>
        <time>2017-09-17T11:04:11Z</time>
      </trkpt>
      <trkpt lat="41.343272" lon="1.058157">
        <ele>744.61</ele>
        <time>2017-09-17T11:04:25Z</time>
      </trkpt>
      <trkpt lat="41.343358" lon="1.058208">
        <ele>741.72</ele>
        <time>2017-09-17T11:04:28Z</time>
      </trkpt>
      <trkpt lat="41.343439" lon="1.058322">
        <ele>736.56</ele>
        <time>2017-09-17T11:04:42Z</time>
      </trkpt>
      <trkpt lat="41.343471" lon="1.058304">
        <ele>732.17</ele>
        <time>2017-09-17T11:05:05Z</time>
      </trkpt>
      <trkpt lat="41.343485" lon="1.058293">
        <ele>731.30</ele>
        <time>2017-09-17T11:05:08Z</time>
      </trkpt>
      <trkpt lat="41.343496" lon="1.058301">
        <ele>730.22</ele>
        <time>2017-09-17T11:05:10Z</time>
      </trkpt>
      <trkpt lat="41.343511" lon="1.058528">
        <ele>727.36</ele>
        <time>2017-09-17T11:05:21Z</time>
      </trkpt>
      <trkpt lat="41.343691" lon="1.058738">
        <ele>724.04</ele>
        <time>2017-09-17T11:05:34Z</time>
      </trkpt>
      <trkpt lat="41.343875" lon="1.058982">
        <ele>721.12</ele>
        <time>2017-09-17T11:05:47Z</time>
      </trkpt>
      <trkpt lat="41.343934" lon="1.059069">
        <ele>721.16</ele>
        <time>2017-09-17T11:05:55Z</time>
      </trkpt>
      <trkpt lat="41.344020" lon="1.059214">
        <ele>720.66</ele>
        <time>2017-09-17T11:06:13Z</time>
      </trkpt>
      <trkpt lat="41.344090" lon="1.059361">
        <ele>718.71</ele>
        <time>2017-09-17T11:06:23Z</time>
      </trkpt>
      <trkpt lat="41.344056" lon="1.059554">
        <ele>717.71</ele>
        <time>2017-09-17T11:06:36Z</time>
      </trkpt>
      <trkpt lat="41.343827" lon="1.059712">
        <ele>719.23</ele>
        <time>2017-09-17T11:06:53Z</time>
      </trkpt>
      <trkpt lat="41.343746" lon="1.059840">
        <ele>719.29</ele>
        <time>2017-09-17T11:07:03Z</time>
      </trkpt>
      <trkpt lat="41.343715" lon="1.059990">
        <ele>719.63</ele>
        <time>2017-09-17T11:07:13Z</time>
      </trkpt>
      <trkpt lat="41.343810" lon="1.060147">
        <ele>719.21</ele>
        <time>2017-09-17T11:07:27Z</time>
      </trkpt>
      <trkpt lat="41.343848" lon="1.060119">
        <ele>719.23</ele>
        <time>2017-09-17T11:07:31Z</time>
      </trkpt>
      <trkpt lat="41.343976" lon="1.059984">
        <ele>718.21</ele>
        <time>2017-09-17T11:07:50Z</time>
      </trkpt>
      <trkpt lat="41.344182" lon="1.059977">
        <ele>720.20</ele>
        <time>2017-09-17T11:08:08Z</time>
      </trkpt>
      <trkpt lat="41.344370" lon="1.060027">
        <ele>721.14</ele>
        <time>2017-09-17T11:08:23Z</time>
      </trkpt>
      <trkpt lat="41.344600" lon="1.060261">
        <ele>720.16</ele>
        <time>2017-09-17T11:08:43Z</time>
      </trkpt>
      <trkpt lat="41.344632" lon="1.060296">
        <ele>719.65</ele>
        <time>2017-09-17T11:08:46Z</time>
      </trkpt>
      <trkpt lat="41.344813" lon="1.060526">
        <ele>717.72</ele>
        <time>2017-09-17T11:09:07Z</time>
      </trkpt>
      <trkpt lat="41.344931" lon="1.060553">
        <ele>717.71</ele>
        <time>2017-09-17T11:09:20Z</time>
      </trkpt>
      <trkpt lat="41.345188" lon="1.060521">
        <ele>720.14</ele>
        <time>2017-09-17T11:09:37Z</time>
      </trkpt>
      <trkpt lat="41.345319" lon="1.060528">
        <ele>720.69</ele>
        <time>2017-09-17T11:09:47Z</time>
      </trkpt>
      <trkpt lat="41.345544" lon="1.060605">
        <ele>722.07</ele>
        <time>2017-09-17T11:10:04Z</time>
      </trkpt>
      <trkpt lat="41.345707" lon="1.060673">
        <ele>722.59</ele>
        <time>2017-09-17T11:10:19Z</time>
      </trkpt>
      <trkpt lat="41.345870" lon="1.060729">
        <ele>723.60</ele>
        <time>2017-09-17T11:10:35Z</time>
      </trkpt>
      <trkpt lat="41.346076" lon="1.060786">
        <ele>724.45</ele>
        <time>2017-09-17T11:10:52Z</time>
      </trkpt>
      <trkpt lat="41.346254" lon="1.060840">
        <ele>725.43</ele>
        <time>2017-09-17T11:11:06Z</time>
      </trkpt>
      <trkpt lat="41.346466" lon="1.060960">
        <ele>727.32</ele>
        <time>2017-09-17T11:11:24Z</time>
      </trkpt>
      <trkpt lat="41.346579" lon="1.061078">
        <ele>727.35</ele>
        <time>2017-09-17T11:11:34Z</time>
      </trkpt>
      <trkpt lat="41.346645" lon="1.061162">
        <ele>726.89</ele>
        <time>2017-09-17T11:11:39Z</time>
      </trkpt>
      <trkpt lat="41.346844" lon="1.061324">
        <ele>726.82</ele>
        <time>2017-09-17T11:11:57Z</time>
      </trkpt>
      <trkpt lat="41.347028" lon="1.061485">
        <ele>726.81</ele>
        <time>2017-09-17T11:12:15Z</time>
      </trkpt>
      <trkpt lat="41.347108" lon="1.061675">
        <ele>726.43</ele>
        <time>2017-09-17T11:12:30Z</time>
      </trkpt>
      <trkpt lat="41.347103" lon="1.061700">
        <ele>726.45</ele>
        <time>2017-09-17T11:12:32Z</time>
      </trkpt>
      <trkpt lat="41.347046" lon="1.061856">
        <ele>727.38</ele>
        <time>2017-09-17T11:12:45Z</time>
      </trkpt>
      <trkpt lat="41.347005" lon="1.061951">
        <ele>728.38</ele>
        <time>2017-09-17T11:12:51Z</time>
      </trkpt>
      <trkpt lat="41.346905" lon="1.062118">
        <ele>728.86</ele>
        <time>2017-09-17T11:13:05Z</time>
      </trkpt>
      <trkpt lat="41.346853" lon="1.062238">
        <ele>729.77</ele>
        <time>2017-09-17T11:13:15Z</time>
      </trkpt>
      <trkpt lat="41.346868" lon="1.062515">
        <ele>732.70</ele>
        <time>2017-09-17T11:13:32Z</time>
      </trkpt>
      <trkpt lat="41.346945" lon="1.062669">
        <ele>734.18</ele>
        <time>2017-09-17T11:13:49Z</time>
      </trkpt>
      <trkpt lat="41.347087" lon="1.062628">
        <ele>737.98</ele>
        <time>2017-09-17T11:14:02Z</time>
      </trkpt>
      <trkpt lat="41.347309" lon="1.062709">
        <ele>745.61</ele>
        <time>2017-09-17T11:14:20Z</time>
      </trkpt>
      <trkpt lat="41.347519" lon="1.062788">
        <ele>750.42</ele>
        <time>2017-09-17T11:14:39Z</time>
      </trkpt>
      <trkpt lat="41.347627" lon="1.062809">
        <ele>753.31</ele>
        <time>2017-09-17T11:14:53Z</time>
      </trkpt>
      <trkpt lat="41.347708" lon="1.062870">
        <ele>753.84</ele>
        <time>2017-09-17T11:15:10Z</time>
      </trkpt>
      <trkpt lat="41.347986" lon="1.062935">
        <ele>754.29</ele>
        <time>2017-09-17T11:15:31Z</time>
      </trkpt>
      <trkpt lat="41.348207" lon="1.062920">
        <ele>758.16</ele>
        <time>2017-09-17T11:15:50Z</time>
      </trkpt>
      <trkpt lat="41.348392" lon="1.062957">
        <ele>759.55</ele>
        <time>2017-09-17T11:16:06Z</time>
      </trkpt>
      <trkpt lat="41.348612" lon="1.063097">
        <ele>759.13</ele>
        <time>2017-09-17T11:16:24Z</time>
      </trkpt>
      <trkpt lat="41.348624" lon="1.063110">
        <ele>759.13</ele>
        <time>2017-09-17T11:16:25Z</time>
      </trkpt>
      <trkpt lat="41.348718" lon="1.063275">
        <ele>759.54</ele>
        <time>2017-09-17T11:16:38Z</time>
      </trkpt>
      <trkpt lat="41.348705" lon="1.063548">
        <ele>761.60</ele>
        <time>2017-09-17T11:16:55Z</time>
      </trkpt>
      <trkpt lat="41.348501" lon="1.063727">
        <ele>764.87</ele>
        <time>2017-09-17T11:17:13Z</time>
      </trkpt>
      <trkpt lat="41.348382" lon="1.063961">
        <ele>766.70</ele>
        <time>2017-09-17T11:17:32Z</time>
      </trkpt>
      <trkpt lat="41.348234" lon="1.064196">
        <ele>767.22</ele>
        <time>2017-09-17T11:17:49Z</time>
      </trkpt>
      <trkpt lat="41.348017" lon="1.064395">
        <ele>766.31</ele>
        <time>2017-09-17T11:18:08Z</time>
      </trkpt>
      <trkpt lat="41.347872" lon="1.064540">
        <ele>764.35</ele>
        <time>2017-09-17T11:18:22Z</time>
      </trkpt>
      <trkpt lat="41.347740" lon="1.064747">
        <ele>761.98</ele>
        <time>2017-09-17T11:18:37Z</time>
      </trkpt>
      <trkpt lat="41.347684" lon="1.065024">
        <ele>761.91</ele>
        <time>2017-09-17T11:18:52Z</time>
      </trkpt>
      <trkpt lat="41.347809" lon="1.065297">
        <ele>760.03</ele>
        <time>2017-09-17T11:19:08Z</time>
      </trkpt>
      <trkpt lat="41.347860" lon="1.065551">
        <ele>760.02</ele>
        <time>2017-09-17T11:19:22Z</time>
      </trkpt>
      <trkpt lat="41.347860" lon="1.065566">
        <ele>760.58</ele>
        <time>2017-09-17T11:19:23Z</time>
      </trkpt>
      <trkpt lat="41.347696" lon="1.065856">
        <ele>761.55</ele>
        <time>2017-09-17T11:19:42Z</time>
      </trkpt>
      <trkpt lat="41.347527" lon="1.066015">
        <ele>762.99</ele>
        <time>2017-09-17T11:19:58Z</time>
      </trkpt>
      <trkpt lat="41.347440" lon="1.066162">
        <ele>762.49</ele>
        <time>2017-09-17T11:20:10Z</time>
      </trkpt>
      <trkpt lat="41.347415" lon="1.066229">
        <ele>762.46</ele>
        <time>2017-09-17T11:20:14Z</time>
      </trkpt>
      <trkpt lat="41.347310" lon="1.066508">
        <ele>763.42</ele>
        <time>2017-09-17T11:20:32Z</time>
      </trkpt>
      <trkpt lat="41.347173" lon="1.066775">
        <ele>770.11</ele>
        <time>2017-09-17T11:20:50Z</time>
      </trkpt>
      <trkpt lat="41.347107" lon="1.066828">
        <ele>772.09</ele>
        <time>2017-09-17T11:20:56Z</time>
      </trkpt>
      <trkpt lat="41.346823" lon="1.066858">
        <ele>772.52</ele>
        <time>2017-09-17T11:21:16Z</time>
      </trkpt>
      <trkpt lat="41.346615" lon="1.066767">
        <ele>776.43</ele>
        <time>2017-09-17T11:21:32Z</time>
      </trkpt>
      <trkpt lat="41.346429" lon="1.066684">
        <ele>779.78</ele>
        <time>2017-09-17T11:21:48Z</time>
      </trkpt>
      <trkpt lat="41.346254" lon="1.066561">
        <ele>781.63</ele>
        <time>2017-09-17T11:22:04Z</time>
      </trkpt>
      <trkpt lat="41.346241" lon="1.066559">
        <ele>781.62</ele>
        <time>2017-09-17T11:22:05Z</time>
      </trkpt>
      <trkpt lat="41.346122" lon="1.066546">
        <ele>782.13</ele>
        <time>2017-09-17T11:22:14Z</time>
      </trkpt>
      <trkpt lat="41.345928" lon="1.066564">
        <ele>781.28</ele>
        <time>2017-09-17T11:22:32Z</time>
      </trkpt>
      <trkpt lat="41.345887" lon="1.066570">
        <ele>781.67</ele>
        <time>2017-09-17T11:22:36Z</time>
      </trkpt>
      <trkpt lat="41.345748" lon="1.066694">
        <ele>784.06</ele>
        <time>2017-09-17T11:22:49Z</time>
      </trkpt>
      <trkpt lat="41.345569" lon="1.066965">
        <ele>785.52</ele>
        <time>2017-09-17T11:23:10Z</time>
      </trkpt>
      <trkpt lat="41.345541" lon="1.067180">
        <ele>789.31</ele>
        <time>2017-09-17T11:23:27Z</time>
      </trkpt>
      <trkpt lat="41.345444" lon="1.067343">
        <ele>790.38</ele>
        <time>2017-09-17T11:23:41Z</time>
      </trkpt>
      <trkpt lat="41.345288" lon="1.067492">
        <ele>789.85</ele>
        <time>2017-09-17T11:23:55Z</time>
      </trkpt>
      <trkpt lat="41.345331" lon="1.067661">
        <ele>796.11</ele>
        <time>2017-09-17T11:24:10Z</time>
      </trkpt>
      <trkpt lat="41.345473" lon="1.067659">
        <ele>803.32</ele>
        <time>2017-09-17T11:24:26Z</time>
      </trkpt>
      <trkpt lat="41.345636" lon="1.067820">
        <ele>801.89</ele>
        <time>2017-09-17T11:24:40Z</time>
      </trkpt>
      <trkpt lat="41.345922" lon="1.067967">
        <ele>801.43</ele>
        <time>2017-09-17T11:25:00Z</time>
      </trkpt>
      <trkpt lat="41.346093" lon="1.068260">
        <ele>803.36</ele>
        <time>2017-09-17T11:25:19Z</time>
      </trkpt>
      <trkpt lat="41.346120" lon="1.068415">
        <ele>803.32</ele>
        <time>2017-09-17T11:25:28Z</time>
      </trkpt>
      <trkpt lat="41.346051" lon="1.068705">
        <ele>803.85</ele>
        <time>2017-09-17T11:25:45Z</time>
      </trkpt>
      <trkpt lat="41.345975" lon="1.068813">
        <ele>803.85</ele>
        <time>2017-09-17T11:25:55Z</time>
      </trkpt>
      <trkpt lat="41.345879" lon="1.068849">
        <ele>803.81</ele>
        <time>2017-09-17T11:26:03Z</time>
      </trkpt>
      <trkpt lat="41.345732" lon="1.069014">
        <ele>804.21</ele>
        <time>2017-09-17T11:26:18Z</time>
      </trkpt>
      <trkpt lat="41.345657" lon="1.069107">
        <ele>804.74</ele>
        <time>2017-09-17T11:26:27Z</time>
      </trkpt>
      <trkpt lat="41.345527" lon="1.069252">
        <ele>806.22</ele>
        <time>2017-09-17T11:26:42Z</time>
      </trkpt>
      <trkpt lat="41.345445" lon="1.069336">
        <ele>807.17</ele>
        <time>2017-09-17T11:26:51Z</time>
      </trkpt>
      <trkpt lat="41.345326" lon="1.069504">
        <ele>807.11</ele>
        <time>2017-09-17T11:27:02Z</time>
      </trkpt>
      <trkpt lat="41.345285" lon="1.069563">
        <ele>806.64</ele>
        <time>2017-09-17T11:27:06Z</time>
      </trkpt>
      <trkpt lat="41.345044" lon="1.069764">
        <ele>804.79</ele>
        <time>2017-09-17T11:27:24Z</time>
      </trkpt>
      <trkpt lat="41.344912" lon="1.069950">
        <ele>803.33</ele>
        <time>2017-09-17T11:27:39Z</time>
      </trkpt>
      <trkpt lat="41.344904" lon="1.069973">
        <ele>803.38</ele>
        <time>2017-09-17T11:27:41Z</time>
      </trkpt>
      <trkpt lat="41.344836" lon="1.070055">
        <ele>802.88</ele>
        <time>2017-09-17T11:27:46Z</time>
      </trkpt>
      <trkpt lat="41.344798" lon="1.070145">
        <ele>802.33</ele>
        <time>2017-09-17T11:27:52Z</time>
      </trkpt>
      <trkpt lat="41.344745" lon="1.070427">
        <ele>804.22</ele>
        <time>2017-09-17T11:28:07Z</time>
      </trkpt>
      <trkpt lat="41.344781" lon="1.070480">
        <ele>804.71</ele>
        <time>2017-09-17T11:28:11Z</time>
      </trkpt>
      <trkpt lat="41.344981" lon="1.070582">
        <ele>807.12</ele>
        <time>2017-09-17T11:28:28Z</time>
      </trkpt>
      <trkpt lat="41.345071" lon="1.070719">
        <ele>809.56</ele>
        <time>2017-09-17T11:28:44Z</time>
      </trkpt>
      <trkpt lat="41.345272" lon="1.070893">
        <ele>812.47</ele>
        <time>2017-09-17T11:29:02Z</time>
      </trkpt>
      <trkpt lat="41.345499" lon="1.071216">
        <ele>813.84</ele>
        <time>2017-09-17T11:29:23Z</time>
      </trkpt>
      <trkpt lat="41.345620" lon="1.071460">
        <ele>815.38</ele>
        <time>2017-09-17T11:29:37Z</time>
      </trkpt>
      <trkpt lat="41.345753" lon="1.071703">
        <ele>817.76</ele>
        <time>2017-09-17T11:29:54Z</time>
      </trkpt>
      <trkpt lat="41.345784" lon="1.071773">
        <ele>817.80</ele>
        <time>2017-09-17T11:29:59Z</time>
      </trkpt>
      <trkpt lat="41.345906" lon="1.072012">
        <ele>819.13</ele>
        <time>2017-09-17T11:30:17Z</time>
      </trkpt>
      <trkpt lat="41.345976" lon="1.072169">
        <ele>819.63</ele>
        <time>2017-09-17T11:30:27Z</time>
      </trkpt>
      <trkpt lat="41.345984" lon="1.072289">
        <ele>820.13</ele>
        <time>2017-09-17T11:30:34Z</time>
      </trkpt>
      <trkpt lat="41.345849" lon="1.072490">
        <ele>821.51</ele>
        <time>2017-09-17T11:30:50Z</time>
      </trkpt>
      <trkpt lat="41.345628" lon="1.072612">
        <ele>821.51</ele>
        <time>2017-09-17T11:31:07Z</time>
      </trkpt>
      <trkpt lat="41.345492" lon="1.072690">
        <ele>821.51</ele>
        <time>2017-09-17T11:31:19Z</time>
      </trkpt>
      <trkpt lat="41.345294" lon="1.072831">
        <ele>822.08</ele>
        <time>2017-09-17T11:31:35Z</time>
      </trkpt>
      <trkpt lat="41.345284" lon="1.072844">
        <ele>822.02</ele>
        <time>2017-09-17T11:31:36Z</time>
      </trkpt>
      <trkpt lat="41.345207" lon="1.072997">
        <ele>822.05</ele>
        <time>2017-09-17T11:31:45Z</time>
      </trkpt>
      <trkpt lat="41.345121" lon="1.073337">
        <ele>825.96</ele>
        <time>2017-09-17T11:32:02Z</time>
      </trkpt>
      <trkpt lat="41.345113" lon="1.073392">
        <ele>826.36</ele>
        <time>2017-09-17T11:32:05Z</time>
      </trkpt>
      <trkpt lat="41.345136" lon="1.073582">
        <ele>828.77</ele>
        <time>2017-09-17T11:32:16Z</time>
      </trkpt>
      <trkpt lat="41.345286" lon="1.073632">
        <ele>830.79</ele>
        <time>2017-09-17T11:32:30Z</time>
      </trkpt>
      <trkpt lat="41.345524" lon="1.073780">
        <ele>833.14</ele>
        <time>2017-09-17T11:32:50Z</time>
      </trkpt>
      <trkpt lat="41.345593" lon="1.073974">
        <ele>833.67</ele>
        <time>2017-09-17T11:33:03Z</time>
      </trkpt>
      <trkpt lat="41.345584" lon="1.074171">
        <ele>836.02</ele>
        <time>2017-09-17T11:33:13Z</time>
      </trkpt>
      <trkpt lat="41.345427" lon="1.074519">
        <ele>839.31</ele>
        <time>2017-09-17T11:33:33Z</time>
      </trkpt>
      <trkpt lat="41.345289" lon="1.074769">
        <ele>841.75</ele>
        <time>2017-09-17T11:33:48Z</time>
      </trkpt>
      <trkpt lat="41.345184" lon="1.074996">
        <ele>843.63</ele>
        <time>2017-09-17T11:34:06Z</time>
      </trkpt>
      <trkpt lat="41.345087" lon="1.075312">
        <ele>845.68</ele>
        <time>2017-09-17T11:34:24Z</time>
      </trkpt>
      <trkpt lat="41.345096" lon="1.075534">
        <ele>847.02</ele>
        <time>2017-09-17T11:34:41Z</time>
      </trkpt>
      <trkpt lat="41.345219" lon="1.075586">
        <ele>848.05</ele>
        <time>2017-09-17T11:34:54Z</time>
      </trkpt>
      <trkpt lat="41.345448" lon="1.075762">
        <ele>849.44</ele>
        <time>2017-09-17T11:35:14Z</time>
      </trkpt>
      <trkpt lat="41.345689" lon="1.075894">
        <ele>849.91</ele>
        <time>2017-09-17T11:35:33Z</time>
      </trkpt>
      <trkpt lat="41.345870" lon="1.076100">
        <ele>850.47</ele>
        <time>2017-09-17T11:35:49Z</time>
      </trkpt>
      <trkpt lat="41.345828" lon="1.076264">
        <ele>851.39</ele>
        <time>2017-09-17T11:35:59Z</time>
      </trkpt>
      <trkpt lat="41.345811" lon="1.076594">
        <ele>853.76</ele>
        <time>2017-09-17T11:36:17Z</time>
      </trkpt>
      <trkpt lat="41.345702" lon="1.076896">
        <ele>855.23</ele>
        <time>2017-09-17T11:36:36Z</time>
      </trkpt>
      <trkpt lat="41.345601" lon="1.077120">
        <ele>856.61</ele>
        <time>2017-09-17T11:36:52Z</time>
      </trkpt>
      <trkpt lat="41.345594" lon="1.077212">
        <ele>857.63</ele>
        <time>2017-09-17T11:36:57Z</time>
      </trkpt>
      <trkpt lat="41.345589" lon="1.077556">
        <ele>859.09</ele>
        <time>2017-09-17T11:37:17Z</time>
      </trkpt>
      <trkpt lat="41.345600" lon="1.077673">
        <ele>859.03</ele>
        <time>2017-09-17T11:37:24Z</time>
      </trkpt>
      <trkpt lat="41.345657" lon="1.077878">
        <ele>859.60</ele>
        <time>2017-09-17T11:37:35Z</time>
      </trkpt>
      <trkpt lat="41.345628" lon="1.077955">
        <ele>860.53</ele>
        <time>2017-09-17T11:37:40Z</time>
      </trkpt>
      <trkpt lat="41.345465" lon="1.078017">
        <ele>860.55</ele>
        <time>2017-09-17T11:37:57Z</time>
      </trkpt>
      <trkpt lat="41.345279" lon="1.078035">
        <ele>861.08</ele>
        <time>2017-09-17T11:38:11Z</time>
      </trkpt>
      <trkpt lat="41.345040" lon="1.078078">
        <ele>861.10</ele>
        <time>2017-09-17T11:38:28Z</time>
      </trkpt>
      <trkpt lat="41.344861" lon="1.078164">
        <ele>862.43</ele>
        <time>2017-09-17T11:38:45Z</time>
      </trkpt>
      <trkpt lat="41.344722" lon="1.078323">
        <ele>863.86</ele>
        <time>2017-09-17T11:39:02Z</time>
      </trkpt>
      <trkpt lat="41.344793" lon="1.078599">
        <ele>866.71</ele>
        <time>2017-09-17T11:39:20Z</time>
      </trkpt>
      <trkpt lat="41.344891" lon="1.078873">
        <ele>868.21</ele>
        <time>2017-09-17T11:39:36Z</time>
      </trkpt>
      <trkpt lat="41.345046" lon="1.079130">
        <ele>870.18</ele>
        <time>2017-09-17T11:39:51Z</time>
      </trkpt>
      <trkpt lat="41.345143" lon="1.079373">
        <ele>875.45</ele>
        <time>2017-09-17T11:40:08Z</time>
      </trkpt>
      <trkpt lat="41.345216" lon="1.079674">
        <ele>879.22</ele>
        <time>2017-09-17T11:40:21Z</time>
      </trkpt>
      <trkpt lat="41.345182" lon="1.079752">
        <ele>879.25</ele>
        <time>2017-09-17T11:40:25Z</time>
      </trkpt>
      <trkpt lat="41.345162" lon="1.079814">
        <ele>882.65</ele>
        <time>2017-09-17T11:40:29Z</time>
      </trkpt>
      <trkpt lat="41.345020" lon="1.079923">
        <ele>885.98</ele>
        <time>2017-09-17T11:40:41Z</time>
      </trkpt>
      <trkpt lat="41.344904" lon="1.080124">
        <ele>887.98</ele>
        <time>2017-09-17T11:40:55Z</time>
      </trkpt>
      <trkpt lat="41.344837" lon="1.080410">
        <ele>891.79</ele>
        <time>2017-09-17T11:41:14Z</time>
      </trkpt>
      <trkpt lat="41.344763" lon="1.080494">
        <ele>893.25</ele>
        <time>2017-09-17T11:41:20Z</time>
      </trkpt>
      <trkpt lat="41.344639" lon="1.080597">
        <ele>895.60</ele>
        <time>2017-09-17T11:41:28Z</time>
      </trkpt>
      <trkpt lat="41.344546" lon="1.080677">
        <ele>898.02</ele>
        <time>2017-09-17T11:41:37Z</time>
      </trkpt>
      <trkpt lat="41.344449" lon="1.080713">
        <ele>898.41</ele>
        <time>2017-09-17T11:41:43Z</time>
      </trkpt>
      <trkpt lat="41.344256" lon="1.080907">
        <ele>900.46</ele>
        <time>2017-09-17T11:42:00Z</time>
      </trkpt>
      <trkpt lat="41.344173" lon="1.081133">
        <ele>902.38</ele>
        <time>2017-09-17T11:42:15Z</time>
      </trkpt>
      <trkpt lat="41.344062" lon="1.081352">
        <ele>901.87</ele>
        <time>2017-09-17T11:42:29Z</time>
      </trkpt>
      <trkpt lat="41.343882" lon="1.081540">
        <ele>899.91</ele>
        <time>2017-09-17T11:42:47Z</time>
      </trkpt>
      <trkpt lat="41.343862" lon="1.081793">
        <ele>900.88</ele>
        <time>2017-09-17T11:43:02Z</time>
      </trkpt>
      <trkpt lat="41.343866" lon="1.082080">
        <ele>901.84</ele>
        <time>2017-09-17T11:43:17Z</time>
      </trkpt>
      <trkpt lat="41.343872" lon="1.082235">
        <ele>904.26</ele>
        <time>2017-09-17T11:43:27Z</time>
      </trkpt>
      <trkpt lat="41.343861" lon="1.082509">
        <ele>907.64</ele>
        <time>2017-09-17T11:43:45Z</time>
      </trkpt>
      <trkpt lat="41.343842" lon="1.082565">
        <ele>907.66</ele>
        <time>2017-09-17T11:43:48Z</time>
      </trkpt>
      <trkpt lat="41.343648" lon="1.082817">
        <ele>908.51</ele>
        <time>2017-09-17T11:44:06Z</time>
      </trkpt>
      <trkpt lat="41.343726" lon="1.083020">
        <ele>907.62</ele>
        <time>2017-09-17T11:44:16Z</time>
      </trkpt>
      <trkpt lat="41.343913" lon="1.083187">
        <ele>905.21</ele>
        <time>2017-09-17T11:44:34Z</time>
      </trkpt>
      <trkpt lat="41.344004" lon="1.083119">
        <ele>904.77</ele>
        <time>2017-09-17T11:44:48Z</time>
      </trkpt>
      <trkpt lat="41.344176" lon="1.082900">
        <ele>904.24</ele>
        <time>2017-09-17T11:45:06Z</time>
      </trkpt>
      <trkpt lat="41.344365" lon="1.082721">
        <ele>906.66</ele>
        <time>2017-09-17T11:45:25Z</time>
      </trkpt>
      <trkpt lat="41.344516" lon="1.082664">
        <ele>907.18</ele>
        <time>2017-09-17T11:45:39Z</time>
      </trkpt>
      <trkpt lat="41.344699" lon="1.082850">
        <ele>907.65</ele>
        <time>2017-09-17T11:45:56Z</time>
      </trkpt>
      <trkpt lat="41.344754" lon="1.083065">
        <ele>907.12</ele>
        <time>2017-09-17T11:46:10Z</time>
      </trkpt>
      <trkpt lat="41.344851" lon="1.083204">
        <ele>907.16</ele>
        <time>2017-09-17T11:46:26Z</time>
      </trkpt>
      <trkpt lat="41.344928" lon="1.083268">
        <ele>911.93</ele>
        <time>2017-09-17T11:46:50Z</time>
      </trkpt>
      <trkpt lat="41.344948" lon="1.083188">
        <ele>912.47</ele>
        <time>2017-09-17T11:47:09Z</time>
      </trkpt>
      <trkpt lat="41.345005" lon="1.083161">
        <ele>914.38</ele>
        <time>2017-09-17T11:47:14Z</time>
      </trkpt>
      <trkpt lat="41.345346" lon="1.083159">
        <ele>918.62</ele>
        <time>2017-09-17T11:47:33Z</time>
      </trkpt>
      <trkpt lat="41.345583" lon="1.083159">
        <ele>918.61</ele>
        <time>2017-09-17T11:47:49Z</time>
      </trkpt>
      <trkpt lat="41.345760" lon="1.083036">
        <ele>918.29</ele>
        <time>2017-09-17T11:48:05Z</time>
      </trkpt>
      <trkpt lat="41.345885" lon="1.082878">
        <ele>918.66</ele>
        <time>2017-09-17T11:48:19Z</time>
      </trkpt>
      <trkpt lat="41.345979" lon="1.082667">
        <ele>919.15</ele>
        <time>2017-09-17T11:48:33Z</time>
      </trkpt>
      <trkpt lat="41.346186" lon="1.082605">
        <ele>923.95</ele>
        <time>2017-09-17T11:48:51Z</time>
      </trkpt>
      <trkpt lat="41.346408" lon="1.082629">
        <ele>925.00</ele>
        <time>2017-09-17T11:49:10Z</time>
      </trkpt>
      <trkpt lat="41.346586" lon="1.082641">
        <ele>926.86</ele>
        <time>2017-09-17T11:49:27Z</time>
      </trkpt>
      <trkpt lat="41.346845" lon="1.082846">
        <ele>926.36</ele>
        <time>2017-09-17T11:49:45Z</time>
      </trkpt>
      <trkpt lat="41.346994" lon="1.082968">
        <ele>928.26</ele>
        <time>2017-09-17T11:50:03Z</time>
      </trkpt>
      <trkpt lat="41.347119" lon="1.082981">
        <ele>931.18</ele>
        <time>2017-09-17T11:50:21Z</time>
      </trkpt>
      <trkpt lat="41.347168" lon="1.082932">
        <ele>932.69</ele>
        <time>2017-09-17T11:50:28Z</time>
      </trkpt>
      <trkpt lat="41.347490" lon="1.082951">
        <ele>936.42</ele>
        <time>2017-09-17T11:50:42Z</time>
      </trkpt>
      <trkpt lat="41.347834" lon="1.083241">
        <ele>928.21</ele>
        <time>2017-09-17T11:51:02Z</time>
      </trkpt>
      <trkpt lat="41.347854" lon="1.083258">
        <ele>928.30</ele>
        <time>2017-09-17T11:51:04Z</time>
      </trkpt>
      <trkpt lat="41.348109" lon="1.083479">
        <ele>924.42</ele>
        <time>2017-09-17T11:51:22Z</time>
      </trkpt>
      <trkpt lat="41.348140" lon="1.083502">
        <ele>924.49</ele>
        <time>2017-09-17T11:51:24Z</time>
      </trkpt>
      <trkpt lat="41.348185" lon="1.083572">
        <ele>923.99</ele>
        <time>2017-09-17T11:51:28Z</time>
      </trkpt>
      <trkpt lat="41.348338" lon="1.083731">
        <ele>923.95</ele>
        <time>2017-09-17T11:51:47Z</time>
      </trkpt>
      <trkpt lat="41.348503" lon="1.083817">
        <ele>924.99</ele>
        <time>2017-09-17T11:52:04Z</time>
      </trkpt>
      <trkpt lat="41.348513" lon="1.083824">
        <ele>924.97</ele>
        <time>2017-09-17T11:52:05Z</time>
      </trkpt>
      <trkpt lat="41.348725" lon="1.084026">
        <ele>925.46</ele>
        <time>2017-09-17T11:52:21Z</time>
      </trkpt>
      <trkpt lat="41.348912" lon="1.084272">
        <ele>928.29</ele>
        <time>2017-09-17T11:52:37Z</time>
      </trkpt>
      <trkpt lat="41.349109" lon="1.084413">
        <ele>932.64</ele>
        <time>2017-09-17T11:52:54Z</time>
      </trkpt>
      <trkpt lat="41.349314" lon="1.084548">
        <ele>935.03</ele>
        <time>2017-09-17T11:53:08Z</time>
      </trkpt>
      <trkpt lat="41.349503" lon="1.084797">
        <ele>937.91</ele>
        <time>2017-09-17T11:53:26Z</time>
      </trkpt>
      <trkpt lat="41.349620" lon="1.084908">
        <ele>941.78</ele>
        <time>2017-09-17T11:53:42Z</time>
      </trkpt>
      <trkpt lat="41.349659" lon="1.084953">
        <ele>943.17</ele>
        <time>2017-09-17T11:53:47Z</time>
      </trkpt>
      <trkpt lat="41.349793" lon="1.085030">
        <ele>945.58</ele>
        <time>2017-09-17T11:53:57Z</time>
      </trkpt>
      <trkpt lat="41.349943" lon="1.085056">
        <ele>950.47</ele>
        <time>2017-09-17T11:54:13Z</time>
      </trkpt>
      <trkpt lat="41.350048" lon="1.084908">
        <ele>955.25</ele>
        <time>2017-09-17T11:54:30Z</time>
      </trkpt>
      <trkpt lat="41.350268" lon="1.084867">
        <ele>961.96</ele>
        <time>2017-09-17T11:54:47Z</time>
      </trkpt>
      <trkpt lat="41.350403" lon="1.084789">
        <ele>965.38</ele>
        <time>2017-09-17T11:54:56Z</time>
      </trkpt>
      <trkpt lat="41.350673" lon="1.084533">
        <ele>966.25</ele>
        <time>2017-09-17T11:55:17Z</time>
      </trkpt>
      <trkpt lat="41.350716" lon="1.084502">
        <ele>964.87</ele>
        <time>2017-09-17T11:55:19Z</time>
      </trkpt>
      <trkpt lat="41.350813" lon="1.084273">
        <ele>960.99</ele>
        <time>2017-09-17T11:55:31Z</time>
      </trkpt>
      <trkpt lat="41.350833" lon="1.084201">
        <ele>959.51</ele>
        <time>2017-09-17T11:55:36Z</time>
      </trkpt>
      <trkpt lat="41.350937" lon="1.083903">
        <ele>958.51</ele>
        <time>2017-09-17T11:55:53Z</time>
      </trkpt>
      <trkpt lat="41.350983" lon="1.083692">
        <ele>959.02</ele>
        <time>2017-09-17T11:56:06Z</time>
      </trkpt>
      <trkpt lat="41.350916" lon="1.083418">
        <ele>959.57</ele>
        <time>2017-09-17T11:56:25Z</time>
      </trkpt>
      <trkpt lat="41.350870" lon="1.083068">
        <ele>957.66</ele>
        <time>2017-09-17T11:56:42Z</time>
      </trkpt>
      <trkpt lat="41.350927" lon="1.082747">
        <ele>958.57</ele>
        <time>2017-09-17T11:56:59Z</time>
      </trkpt>
      <trkpt lat="41.351003" lon="1.082450">
        <ele>961.95</ele>
        <time>2017-09-17T11:57:15Z</time>
      </trkpt>
      <trkpt lat="41.351073" lon="1.082128">
        <ele>961.44</ele>
        <time>2017-09-17T11:57:34Z</time>
      </trkpt>
      <trkpt lat="41.351087" lon="1.081749">
        <ele>962.99</ele>
        <time>2017-09-17T11:57:52Z</time>
      </trkpt>
      <trkpt lat="41.351131" lon="1.081613">
        <ele>964.39</ele>
        <time>2017-09-17T11:58:01Z</time>
      </trkpt>
      <trkpt lat="41.351249" lon="1.081270">
        <ele>967.23</ele>
        <time>2017-09-17T11:58:20Z</time>
      </trkpt>
      <trkpt lat="41.351405" lon="1.080980">
        <ele>968.63</ele>
        <time>2017-09-17T11:58:39Z</time>
      </trkpt>
      <trkpt lat="41.351518" lon="1.080714">
        <ele>969.11</ele>
        <time>2017-09-17T11:58:56Z</time>
      </trkpt>
      <trkpt lat="41.351540" lon="1.080689">
        <ele>969.11</ele>
        <time>2017-09-17T11:58:58Z</time>
      </trkpt>
      <trkpt lat="41.351869" lon="1.080527">
        <ele>970.15</ele>
        <time>2017-09-17T11:59:19Z</time>
      </trkpt>
      <trkpt lat="41.352065" lon="1.080532">
        <ele>973.94</ele>
        <time>2017-09-17T11:59:37Z</time>
      </trkpt>
      <trkpt lat="41.352179" lon="1.080493">
        <ele>977.32</ele>
        <time>2017-09-17T11:59:52Z</time>
      </trkpt>
      <trkpt lat="41.352397" lon="1.080534">
        <ele>979.80</ele>
        <time>2017-09-17T12:00:10Z</time>
      </trkpt>
      <trkpt lat="41.352647" lon="1.080723">
        <ele>980.28</ele>
        <time>2017-09-17T12:00:27Z</time>
      </trkpt>
      <trkpt lat="41.352758" lon="1.080780">
        <ele>981.19</ele>
        <time>2017-09-17T12:00:35Z</time>
      </trkpt>
      <trkpt lat="41.352855" lon="1.080802">
        <ele>981.65</ele>
        <time>2017-09-17T12:00:42Z</time>
      </trkpt>
      <trkpt lat="41.353126" lon="1.080893">
        <ele>981.11</ele>
        <time>2017-09-17T12:01:00Z</time>
      </trkpt>
      <trkpt lat="41.353345" lon="1.080974">
        <ele>980.28</ele>
        <time>2017-09-17T12:01:15Z</time>
      </trkpt>
      <trkpt lat="41.353610" lon="1.081115">
        <ele>979.73</ele>
        <time>2017-09-17T12:01:34Z</time>
      </trkpt>
      <trkpt lat="41.353751" lon="1.081146">
        <ele>980.62</ele>
        <time>2017-09-17T12:01:50Z</time>
      </trkpt>
      <trkpt lat="41.353801" lon="1.081135">
        <ele>981.11</ele>
        <time>2017-09-17T12:01:56Z</time>
      </trkpt>
      <trkpt lat="41.354132" lon="1.080811">
        <ele>983.56</ele>
        <time>2017-09-17T12:02:12Z</time>
      </trkpt>
      <trkpt lat="41.354194" lon="1.080456">
        <ele>985.08</ele>
        <time>2017-09-17T12:02:31Z</time>
      </trkpt>
      <trkpt lat="41.354220" lon="1.080189">
        <ele>986.45</ele>
        <time>2017-09-17T12:02:47Z</time>
      </trkpt>
      <trkpt lat="41.354218" lon="1.079807">
        <ele>986.43</ele>
        <time>2017-09-17T12:03:07Z</time>
      </trkpt>
      <trkpt lat="41.354207" lon="1.079539">
        <ele>986.91</ele>
        <time>2017-09-17T12:03:22Z</time>
      </trkpt>
      <trkpt lat="41.354263" lon="1.079181">
        <ele>988.89</ele>
        <time>2017-09-17T12:03:40Z</time>
      </trkpt>
      <trkpt lat="41.354379" lon="1.078931">
        <ele>989.82</ele>
        <time>2017-09-17T12:03:57Z</time>
      </trkpt>
      <trkpt lat="41.354669" lon="1.078782">
        <ele>992.29</ele>
        <time>2017-09-17T12:04:18Z</time>
      </trkpt>
      <trkpt lat="41.354856" lon="1.078666">
        <ele>995.12</ele>
        <time>2017-09-17T12:04:35Z</time>
      </trkpt>
      <trkpt lat="41.354987" lon="1.078563">
        <ele>996.10</ele>
        <time>2017-09-17T12:04:47Z</time>
      </trkpt>
      <trkpt lat="41.355190" lon="1.078386">
        <ele>997.52</ele>
        <time>2017-09-17T12:05:04Z</time>
      </trkpt>
      <trkpt lat="41.355217" lon="1.078351">
        <ele>997.51</ele>
        <time>2017-09-17T12:05:07Z</time>
      </trkpt>
      <trkpt lat="41.355524" lon="1.078172">
        <ele>999.97</ele>
        <time>2017-09-17T12:05:26Z</time>
      </trkpt>
      <trkpt lat="41.355674" lon="1.078211">
        <ele>999.41</ele>
        <time>2017-09-17T12:05:41Z</time>
      </trkpt>
      <trkpt lat="41.355775" lon="1.078196">
        <ele>994.11</ele>
        <time>2017-09-17T12:10:37Z</time>
      </trkpt>
      <trkpt lat="41.355948" lon="1.078124">
        <ele>993.20</ele>
        <time>2017-09-17T12:10:53Z</time>
      </trkpt>
      <trkpt lat="41.356048" lon="1.078064">
        <ele>993.13</ele>
        <time>2017-09-17T12:11:04Z</time>
      </trkpt>
      <trkpt lat="41.356225" lon="1.078115">
        <ele>992.22</ele>
        <time>2017-09-17T12:11:20Z</time>
      </trkpt>
      <trkpt lat="41.356242" lon="1.078140">
        <ele>992.24</ele>
        <time>2017-09-17T12:11:22Z</time>
      </trkpt>
      <trkpt lat="41.356251" lon="1.078171">
        <ele>991.77</ele>
        <time>2017-09-17T12:11:24Z</time>
      </trkpt>
      <trkpt lat="41.356149" lon="1.078447">
        <ele>989.82</ele>
        <time>2017-09-17T12:11:39Z</time>
      </trkpt>
      <trkpt lat="41.356026" lon="1.078695">
        <ele>986.42</ele>
        <time>2017-09-17T12:11:51Z</time>
      </trkpt>
      <trkpt lat="41.356028" lon="1.078831">
        <ele>985.45</ele>
        <time>2017-09-17T12:11:56Z</time>
      </trkpt>
      <trkpt lat="41.356018" lon="1.078933">
        <ele>985.06</ele>
        <time>2017-09-17T12:12:00Z</time>
      </trkpt>
      <trkpt lat="41.355987" lon="1.079280">
        <ele>982.18</ele>
        <time>2017-09-17T12:12:13Z</time>
      </trkpt>
      <trkpt lat="41.355952" lon="1.079437">
        <ele>980.61</ele>
        <time>2017-09-17T12:12:18Z</time>
      </trkpt>
      <trkpt lat="41.355916" lon="1.079774">
        <ele>979.21</ele>
        <time>2017-09-17T12:12:32Z</time>
      </trkpt>
      <trkpt lat="41.356001" lon="1.079460">
        <ele>978.23</ele>
        <time>2017-09-17T12:12:35Z</time>
      </trkpt>
      <trkpt lat="41.356047" lon="1.079125">
        <ele>976.33</ele>
        <time>2017-09-17T12:12:50Z</time>
      </trkpt>
      <trkpt lat="41.356133" lon="1.078840">
        <ele>977.39</ele>
        <time>2017-09-17T12:13:02Z</time>
      </trkpt>
      <trkpt lat="41.356349" lon="1.078610">
        <ele>978.21</ele>
        <time>2017-09-17T12:13:17Z</time>
      </trkpt>
      <trkpt lat="41.356627" lon="1.078489">
        <ele>977.84</ele>
        <time>2017-09-17T12:13:33Z</time>
      </trkpt>
      <trkpt lat="41.356936" lon="1.078378">
        <ele>977.39</ele>
        <time>2017-09-17T12:13:48Z</time>
      </trkpt>
      <trkpt lat="41.357045" lon="1.078557">
        <ele>976.90</ele>
        <time>2017-09-17T12:14:00Z</time>
      </trkpt>
      <trkpt lat="41.356968" lon="1.078558">
        <ele>975.88</ele>
        <time>2017-09-17T12:14:04Z</time>
      </trkpt>
      <trkpt lat="41.356712" lon="1.078630">
        <ele>967.72</ele>
        <time>2017-09-17T12:14:17Z</time>
      </trkpt>
      <trkpt lat="41.356516" lon="1.078807">
        <ele>961.98</ele>
        <time>2017-09-17T12:14:29Z</time>
      </trkpt>
      <trkpt lat="41.356486" lon="1.078849">
        <ele>960.41</ele>
        <time>2017-09-17T12:14:31Z</time>
      </trkpt>
      <trkpt lat="41.356434" lon="1.078998">
        <ele>957.11</ele>
        <time>2017-09-17T12:14:37Z</time>
      </trkpt>
      <trkpt lat="41.356383" lon="1.079341">
        <ele>952.82</ele>
        <time>2017-09-17T12:14:50Z</time>
      </trkpt>
      <trkpt lat="41.356434" lon="1.079635">
        <ele>954.28</ele>
        <time>2017-09-17T12:15:02Z</time>
      </trkpt>
      <trkpt lat="41.356426" lon="1.079960">
        <ele>953.76</ele>
        <time>2017-09-17T12:15:12Z</time>
      </trkpt>
      <trkpt lat="41.356424" lon="1.079995">
        <ele>953.76</ele>
        <time>2017-09-17T12:15:13Z</time>
      </trkpt>
      <trkpt lat="41.356378" lon="1.080354">
        <ele>951.34</ele>
        <time>2017-09-17T12:15:25Z</time>
      </trkpt>
      <trkpt lat="41.356371" lon="1.080687">
        <ele>950.86</ele>
        <time>2017-09-17T12:15:36Z</time>
      </trkpt>
      <trkpt lat="41.356365" lon="1.081050">
        <ele>950.83</ele>
        <time>2017-09-17T12:15:47Z</time>
      </trkpt>
      <trkpt lat="41.356402" lon="1.081395">
        <ele>952.85</ele>
        <time>2017-09-17T12:15:59Z</time>
      </trkpt>
      <trkpt lat="41.356363" lon="1.081717">
        <ele>955.68</ele>
        <time>2017-09-17T12:16:09Z</time>
      </trkpt>
      <trkpt lat="41.356308" lon="1.082126">
        <ele>955.69</ele>
        <time>2017-09-17T12:16:23Z</time>
      </trkpt>
      <trkpt lat="41.356254" lon="1.082368">
        <ele>956.62</ele>
        <time>2017-09-17T12:16:32Z</time>
      </trkpt>
      <trkpt lat="41.356290" lon="1.082492">
        <ele>956.61</ele>
        <time>2017-09-17T12:16:38Z</time>
      </trkpt>
      <trkpt lat="41.356317" lon="1.082914">
        <ele>959.06</ele>
        <time>2017-09-17T12:16:52Z</time>
      </trkpt>
      <trkpt lat="41.356298" lon="1.083287">
        <ele>959.60</ele>
        <time>2017-09-17T12:17:04Z</time>
      </trkpt>
      <trkpt lat="41.356384" lon="1.083927">
        <ele>956.17</ele>
        <time>2017-09-17T12:17:34Z</time>
      </trkpt>
      <trkpt lat="41.356392" lon="1.083938">
        <ele>956.12</ele>
        <time>2017-09-17T12:17:35Z</time>
      </trkpt>
      <trkpt lat="41.356491" lon="1.083992">
        <ele>955.26</ele>
        <time>2017-09-17T12:17:47Z</time>
      </trkpt>
      <trkpt lat="41.356523" lon="1.083988">
        <ele>955.29</ele>
        <time>2017-09-17T12:17:49Z</time>
      </trkpt>
      <trkpt lat="41.356606" lon="1.083962">
        <ele>954.28</ele>
        <time>2017-09-17T12:17:53Z</time>
      </trkpt>
      <trkpt lat="41.356724" lon="1.084017">
        <ele>953.76</ele>
        <time>2017-09-17T12:17:57Z</time>
      </trkpt>
      <trkpt lat="41.356847" lon="1.084098">
        <ele>953.23</ele>
        <time>2017-09-17T12:18:01Z</time>
      </trkpt>
      <trkpt lat="41.357137" lon="1.084168">
        <ele>951.31</ele>
        <time>2017-09-17T12:18:13Z</time>
      </trkpt>
      <trkpt lat="41.357332" lon="1.084192">
        <ele>949.49</ele>
        <time>2017-09-17T12:18:22Z</time>
      </trkpt>
      <trkpt lat="41.357508" lon="1.084241">
        <ele>947.08</ele>
        <time>2017-09-17T12:18:29Z</time>
      </trkpt>
      <trkpt lat="41.357788" lon="1.084352">
        <ele>942.22</ele>
        <time>2017-09-17T12:18:43Z</time>
      </trkpt>
      <trkpt lat="41.357864" lon="1.084405">
        <ele>940.79</ele>
        <time>2017-09-17T12:18:47Z</time>
      </trkpt>
      <trkpt lat="41.358170" lon="1.084673">
        <ele>935.91</ele>
        <time>2017-09-17T12:18:58Z</time>
      </trkpt>
      <trkpt lat="41.358285" lon="1.084988">
        <ele>932.70</ele>
        <time>2017-09-17T12:19:10Z</time>
      </trkpt>
      <trkpt lat="41.358250" lon="1.085240">
        <ele>931.18</ele>
        <time>2017-09-17T12:19:19Z</time>
      </trkpt>
      <trkpt lat="41.358266" lon="1.085358">
        <ele>930.69</ele>
        <time>2017-09-17T12:19:24Z</time>
      </trkpt>
      <trkpt lat="41.358245" lon="1.085804">
        <ele>929.29</ele>
        <time>2017-09-17T12:19:40Z</time>
      </trkpt>
      <trkpt lat="41.358304" lon="1.086042">
        <ele>929.71</ele>
        <time>2017-09-17T12:19:49Z</time>
      </trkpt>
      <trkpt lat="41.358295" lon="1.086149">
        <ele>929.73</ele>
        <time>2017-09-17T12:19:53Z</time>
      </trkpt>
      <trkpt lat="41.358335" lon="1.086645">
        <ele>930.61</ele>
        <time>2017-09-17T12:20:10Z</time>
      </trkpt>
      <trkpt lat="41.358331" lon="1.086951">
        <ele>930.64</ele>
        <time>2017-09-17T12:20:21Z</time>
      </trkpt>
      <trkpt lat="41.358323" lon="1.087266">
        <ele>931.18</ele>
        <time>2017-09-17T12:20:33Z</time>
      </trkpt>
      <trkpt lat="41.358173" lon="1.087621">
        <ele>931.14</ele>
        <time>2017-09-17T12:20:46Z</time>
      </trkpt>
      <trkpt lat="41.358132" lon="1.087686">
        <ele>931.65</ele>
        <time>2017-09-17T12:20:49Z</time>
      </trkpt>
      <trkpt lat="41.357987" lon="1.087817">
        <ele>931.15</ele>
        <time>2017-09-17T12:20:57Z</time>
      </trkpt>
      <trkpt lat="41.357775" lon="1.088074">
        <ele>927.89</ele>
        <time>2017-09-17T12:21:09Z</time>
      </trkpt>
      <trkpt lat="41.357647" lon="1.088437">
        <ele>926.33</ele>
        <time>2017-09-17T12:21:25Z</time>
      </trkpt>
      <trkpt lat="41.357763" lon="1.088781">
        <ele>926.85</ele>
        <time>2017-09-17T12:21:41Z</time>
      </trkpt>
      <trkpt lat="41.357831" lon="1.088954">
        <ele>927.83</ele>
        <time>2017-09-17T12:21:50Z</time>
      </trkpt>
      <trkpt lat="41.357866" lon="1.089273">
        <ele>929.73</ele>
        <time>2017-09-17T12:22:04Z</time>
      </trkpt>
      <trkpt lat="41.358045" lon="1.089511">
        <ele>930.21</ele>
        <time>2017-09-17T12:22:19Z</time>
      </trkpt>
      <trkpt lat="41.358285" lon="1.089883">
        <ele>929.71</ele>
        <time>2017-09-17T12:22:32Z</time>
      </trkpt>
      <trkpt lat="41.358531" lon="1.090204">
        <ele>929.72</ele>
        <time>2017-09-17T12:22:47Z</time>
      </trkpt>
      <trkpt lat="41.358805" lon="1.090518">
        <ele>929.24</ele>
        <time>2017-09-17T12:23:02Z</time>
      </trkpt>
      <trkpt lat="41.358980" lon="1.090825">
        <ele>929.28</ele>
        <time>2017-09-17T12:23:15Z</time>
      </trkpt>
      <trkpt lat="41.359156" lon="1.091132">
        <ele>928.72</ele>
        <time>2017-09-17T12:23:29Z</time>
      </trkpt>
      <trkpt lat="41.359349" lon="1.091323">
        <ele>928.76</ele>
        <time>2017-09-17T12:23:42Z</time>
      </trkpt>
      <trkpt lat="41.359474" lon="1.091406">
        <ele>928.27</ele>
        <time>2017-09-17T12:23:51Z</time>
      </trkpt>
      <trkpt lat="41.359528" lon="1.091454">
        <ele>928.25</ele>
        <time>2017-09-17T12:23:55Z</time>
      </trkpt>
      <trkpt lat="41.359916" lon="1.091734">
        <ele>926.81</ele>
        <time>2017-09-17T12:24:11Z</time>
      </trkpt>
      <trkpt lat="41.360164" lon="1.092119">
        <ele>925.49</ele>
        <time>2017-09-17T12:24:25Z</time>
      </trkpt>
      <trkpt lat="41.360161" lon="1.092186">
        <ele>924.41</ele>
        <time>2017-09-17T12:24:27Z</time>
      </trkpt>
      <trkpt lat="41.360163" lon="1.092307">
        <ele>923.03</ele>
        <time>2017-09-17T12:24:31Z</time>
      </trkpt>
      <trkpt lat="41.360036" lon="1.092635">
        <ele>922.01</ele>
        <time>2017-09-17T12:24:44Z</time>
      </trkpt>
      <trkpt lat="41.360145" lon="1.092984">
        <ele>922.02</ele>
        <time>2017-09-17T12:24:56Z</time>
      </trkpt>
      <trkpt lat="41.360222" lon="1.093342">
        <ele>921.53</ele>
        <time>2017-09-17T12:25:07Z</time>
      </trkpt>
      <trkpt lat="" lon=""/>
      <trkpt lat="41.324434" lon="1.068404">
        <ele>1047.01</ele>
        <time>2018-11-25T11:17:19.13Z</time>
      </trkpt>
      <trkpt lat="41.324266" lon="1.068598">
        <ele>1047.01</ele>
        <time>2018-11-25T11:17:19.56Z</time>
      </trkpt>
      <trkpt lat="41.324190" lon="1.068101">
        <ele>1047.01</ele>
        <time>2018-11-25T11:17:21Z</time>
      </trkpt>
      <trkpt lat="41.324037" lon="1.066975">
        <ele>1035.01</ele>
        <time>2018-11-25T11:19:51Z</time>
      </trkpt>
      <trkpt lat="41.324051" lon="1.066932">
        <ele>1036.07</ele>
        <time>2018-11-25T11:19:55Z</time>
      </trkpt>
      <trkpt lat="41.324081" lon="1.066902">
        <ele>1037.03</ele>
        <time>2018-11-25T11:19:57Z</time>
      </trkpt>
      <trkpt lat="41.324109" lon="1.066869">
        <ele>1037.33</ele>
        <time>2018-11-25T11:19:59Z</time>
      </trkpt>
      <trkpt lat="41.324133" lon="1.066826">
        <ele>1040.12</ele>
        <time>2018-11-25T11:20:01Z</time>
      </trkpt>
      <trkpt lat="41.324157" lon="1.066776">
        <ele>1041.09</ele>
        <time>2018-11-25T11:20:04Z</time>
      </trkpt>
      <trkpt lat="41.324173" lon="1.066720">
        <ele>1042.04</ele>
        <time>2018-11-25T11:20:07Z</time>
      </trkpt>
      <trkpt lat="41.324195" lon="1.066671">
        <ele>1043.02</ele>
        <time>2018-11-25T11:20:11Z</time>
      </trkpt>
      <trkpt lat="41.324216" lon="1.066633">
        <ele>1043.18</ele>
        <time>2018-11-25T11:20:22Z</time>
      </trkpt>
      <trkpt lat="41.324228" lon="1.066593">
        <ele>1044.32</ele>
        <time>2018-11-25T11:20:25Z</time>
      </trkpt>
      <trkpt lat="41.324245" lon="1.066549">
        <ele>1046.01</ele>
        <time>2018-11-25T11:20:27Z</time>
      </trkpt>
      <trkpt lat="41.324265" lon="1.066509">
        <ele>1046.13</ele>
        <time>2018-11-25T11:20:29Z</time>
      </trkpt>
      <trkpt lat="41.324279" lon="1.066451">
        <ele>1047.84</ele>
        <time>2018-11-25T11:20:32Z</time>
      </trkpt>
      <trkpt lat="41.324288" lon="1.066400">
        <ele>1049.07</ele>
        <time>2018-11-25T11:20:34Z</time>
      </trkpt>
      <trkpt lat="41.324305" lon="1.066346">
        <ele>1051.05</ele>
        <time>2018-11-25T11:20:36Z</time>
      </trkpt>
      <trkpt lat="41.324324" lon="1.066298">
        <ele>1051.23</ele>
        <time>2018-11-25T11:20:38Z</time>
      </trkpt>
      <trkpt lat="41.324346" lon="1.066239">
        <ele>1052.06</ele>
        <time>2018-11-25T11:20:40Z</time>
      </trkpt>
      <trkpt lat="41.324370" lon="1.066173">
        <ele>1052.09</ele>
        <time>2018-11-25T11:20:43Z</time>
      </trkpt>
      <trkpt lat="41.324391" lon="1.066130">
        <ele>1053.08</ele>
        <time>2018-11-25T11:20:46Z</time>
      </trkpt>
      <trkpt lat="41.324418" lon="1.066090">
        <ele>1053.03</ele>
        <time>2018-11-25T11:20:52Z</time>
      </trkpt>
      <trkpt lat="41.324446" lon="1.066055">
        <ele>1053.02</ele>
        <time>2018-11-25T11:20:57Z</time>
      </trkpt>
      <trkpt lat="41.324464" lon="1.066006">
        <ele>1053.07</ele>
        <time>2018-11-25T11:21:05Z</time>
      </trkpt>
      <trkpt lat="41.324492" lon="1.065965">
        <ele>1053.01</ele>
        <time>2018-11-25T11:21:12Z</time>
      </trkpt>
      <trkpt lat="41.324526" lon="1.065941">
        <ele>1053.02</ele>
        <time>2018-11-25T11:21:15Z</time>
      </trkpt>
      <trkpt lat="41.324546" lon="1.065892">
        <ele>1052.40</ele>
        <time>2018-11-25T11:21:22Z</time>
      </trkpt>
      <trkpt lat="41.324570" lon="1.065852">
        <ele>1054.25</ele>
        <time>2018-11-25T11:21:30Z</time>
      </trkpt>
      <trkpt lat="41.324616" lon="1.065822">
        <ele>1055.07</ele>
        <time>2018-11-25T11:21:32Z</time>
      </trkpt>
      <trkpt lat="41.324662" lon="1.065780">
        <ele>1058.09</ele>
        <time>2018-11-25T11:21:35Z</time>
      </trkpt>
      <trkpt lat="41.324684" lon="1.065743">
        <ele>1058.40</ele>
        <time>2018-11-25T11:21:37Z</time>
      </trkpt>
      <trkpt lat="41.324718" lon="1.065703">
        <ele>1059.03</ele>
        <time>2018-11-25T11:21:40Z</time>
      </trkpt>
      <trkpt lat="41.324748" lon="1.065658">
        <ele>1059.01</ele>
        <time>2018-11-25T11:21:46Z</time>
      </trkpt>
      <trkpt lat="41.324772" lon="1.065620">
        <ele>1059.02</ele>
        <time>2018-11-25T11:22:00Z</time>
      </trkpt>
      <trkpt lat="41.324794" lon="1.065620">
        <ele>1062.10</ele>
        <time>2018-11-25T11:22:35Z</time>
      </trkpt>
      <trkpt lat="41.324832" lon="1.065617">
        <ele>1061.06</ele>
        <time>2018-11-25T11:22:46Z</time>
      </trkpt>
      <trkpt lat="41.324856" lon="1.065597">
        <ele>1063.01</ele>
        <time>2018-11-25T11:23:21Z</time>
      </trkpt>
      <trkpt lat="41.324889" lon="1.065570">
        <ele>1064.02</ele>
        <time>2018-11-25T11:23:24Z</time>
      </trkpt>
      <trkpt lat="41.324922" lon="1.065545">
        <ele>1065.01</ele>
        <time>2018-11-25T11:23:26Z</time>
      </trkpt>
      <trkpt lat="41.324949" lon="1.065522">
        <ele>1065.38</ele>
        <time>2018-11-25T11:23:28Z</time>
      </trkpt>
      <trkpt lat="41.324984" lon="1.065503">
        <ele>1067.34</ele>
        <time>2018-11-25T11:23:30Z</time>
      </trkpt>
      <trkpt lat="41.325032" lon="1.065481">
        <ele>1070.10</ele>
        <time>2018-11-25T11:23:32Z</time>
      </trkpt>
      <trkpt lat="41.325066" lon="1.065452">
        <ele>1072.07</ele>
        <time>2018-11-25T11:23:35Z</time>
      </trkpt>
      <trkpt lat="41.325112" lon="1.065429">
        <ele>1074.02</ele>
        <time>2018-11-25T11:23:38Z</time>
      </trkpt>
      <trkpt lat="41.325151" lon="1.065404">
        <ele>1075.14</ele>
        <time>2018-11-25T11:23:41Z</time>
      </trkpt>
      <trkpt lat="41.325178" lon="1.065371">
        <ele>1076.08</ele>
        <time>2018-11-25T11:23:44Z</time>
      </trkpt>
      <trkpt lat="41.325212" lon="1.065338">
        <ele>1078.09</ele>
        <time>2018-11-25T11:23:47Z</time>
      </trkpt>
      <trkpt lat="41.325231" lon="1.065298">
        <ele>1078.22</ele>
        <time>2018-11-25T11:23:52Z</time>
      </trkpt>
      <trkpt lat="41.325227" lon="1.065246">
        <ele>1079.21</ele>
        <time>2018-11-25T11:24:26Z</time>
      </trkpt>
      <trkpt lat="41.325259" lon="1.065254">
        <ele>1082.01</ele>
        <time>2018-11-25T11:24:34Z</time>
      </trkpt>
      <trkpt lat="41.325268" lon="1.065300">
        <ele>1081.06</ele>
        <time>2018-11-25T11:25:51Z</time>
      </trkpt>
      <trkpt lat="41.325274" lon="1.065338">
        <ele>1084.04</ele>
        <time>2018-11-25T11:25:57Z</time>
      </trkpt>
      <trkpt lat="41.325300" lon="1.065378">
        <ele>1085.06</ele>
        <time>2018-11-25T11:26:02Z</time>
      </trkpt>
      <trkpt lat="41.325336" lon="1.065384">
        <ele>1085.01</ele>
        <time>2018-11-25T11:26:06Z</time>
      </trkpt>
      <trkpt lat="41.325360" lon="1.065423">
        <ele>1086.03</ele>
        <time>2018-11-25T11:26:12Z</time>
      </trkpt>
      <trkpt lat="41.325399" lon="1.065437">
        <ele>1087.06</ele>
        <time>2018-11-25T11:26:26Z</time>
      </trkpt>
      <trkpt lat="41.325427" lon="1.065411">
        <ele>1089.02</ele>
        <time>2018-11-25T11:27:44Z</time>
      </trkpt>
      <trkpt lat="41.325451" lon="1.065456">
        <ele>1090.05</ele>
        <time>2018-11-25T11:27:49Z</time>
      </trkpt>
      <trkpt lat="41.325485" lon="1.065466">
        <ele>1091.06</ele>
        <time>2018-11-25T11:27:56Z</time>
      </trkpt>
      <trkpt lat="41.325516" lon="1.065460">
        <ele>1093.44</ele>
        <time>2018-11-25T11:28:03Z</time>
      </trkpt>
      <trkpt lat="41.325510" lon="1.065410">
        <ele>1094.01</ele>
        <time>2018-11-25T11:28:25Z</time>
      </trkpt>
      <trkpt lat="41.325534" lon="1.065445">
        <ele>1095.01</ele>
        <time>2018-11-25T11:28:31Z</time>
      </trkpt>
      <trkpt lat="41.325548" lon="1.065490">
        <ele>1096.07</ele>
        <time>2018-11-25T11:28:33Z</time>
      </trkpt>
      <trkpt lat="41.325566" lon="1.065541">
        <ele>1097.02</ele>
        <time>2018-11-25T11:28:36Z</time>
      </trkpt>
      <trkpt lat="41.325596" lon="1.065586">
        <ele>1099.04</ele>
        <time>2018-11-25T11:28:39Z</time>
      </trkpt>
      <trkpt lat="41.325630" lon="1.065599">
        <ele>1099.03</ele>
        <time>2018-11-25T11:28:41Z</time>
      </trkpt>
      <trkpt lat="41.325666" lon="1.065604">
        <ele>1100.04</ele>
        <time>2018-11-25T11:28:43Z</time>
      </trkpt>
      <trkpt lat="41.325720" lon="1.065611">
        <ele>1102.19</ele>
        <time>2018-11-25T11:28:46Z</time>
      </trkpt>
      <trkpt lat="41.325762" lon="1.065623">
        <ele>1103.01</ele>
        <time>2018-11-25T11:28:49Z</time>
      </trkpt>
      <trkpt lat="41.325798" lon="1.065625">
        <ele>1103.03</ele>
        <time>2018-11-25T11:28:52Z</time>
      </trkpt>
      <trkpt lat="41.325844" lon="1.065607">
        <ele>1103.11</ele>
        <time>2018-11-25T11:28:55Z</time>
      </trkpt>
      <trkpt lat="41.325884" lon="1.065594">
        <ele>1104.08</ele>
        <time>2018-11-25T11:28:57Z</time>
      </trkpt>
      <trkpt lat="41.325928" lon="1.065574">
        <ele>1103.11</ele>
        <time>2018-11-25T11:29:00Z</time>
      </trkpt>
      <trkpt lat="41.325968" lon="1.065548">
        <ele>1105.02</ele>
        <time>2018-11-25T11:29:04Z</time>
      </trkpt>
      <trkpt lat="41.326002" lon="1.065524">
        <ele>1105.06</ele>
        <time>2018-11-25T11:29:07Z</time>
      </trkpt>
      <trkpt lat="41.326049" lon="1.065507">
        <ele>1108.05</ele>
        <time>2018-11-25T11:29:10Z</time>
      </trkpt>
      <trkpt lat="41.326095" lon="1.065488">
        <ele>1108.02</ele>
        <time>2018-11-25T11:29:13Z</time>
      </trkpt>
      <trkpt lat="41.326125" lon="1.065462">
        <ele>1108.03</ele>
        <time>2018-11-25T11:29:17Z</time>
      </trkpt>
      <trkpt lat="41.326154" lon="1.065422">
        <ele>1108.01</ele>
        <time>2018-11-25T11:29:25Z</time>
      </trkpt>
      <trkpt lat="41.326149" lon="1.065373">
        <ele>1108.07</ele>
        <time>2018-11-25T11:29:28Z</time>
      </trkpt>
      <trkpt lat="41.326145" lon="1.065323">
        <ele>1108.09</ele>
        <time>2018-11-25T11:29:31Z</time>
      </trkpt>
      <trkpt lat="41.326152" lon="1.065259">
        <ele>1109.04</ele>
        <time>2018-11-25T11:29:34Z</time>
      </trkpt>
      <trkpt lat="41.326160" lon="1.065208">
        <ele>1111.25</ele>
        <time>2018-11-25T11:29:38Z</time>
      </trkpt>
      <trkpt lat="41.326170" lon="1.065160">
        <ele>1111.06</ele>
        <time>2018-11-25T11:29:58Z</time>
      </trkpt>
      <trkpt lat="41.326197" lon="1.065114">
        <ele>1112.11</ele>
        <time>2018-11-25T11:30:02Z</time>
      </trkpt>
      <trkpt lat="41.326192" lon="1.065058">
        <ele>1114.02</ele>
        <time>2018-11-25T11:30:07Z</time>
      </trkpt>
      <trkpt lat="41.326190" lon="1.065006">
        <ele>1114.07</ele>
        <time>2018-11-25T11:30:12Z</time>
      </trkpt>
      <trkpt lat="41.326180" lon="1.064961">
        <ele>1114.14</ele>
        <time>2018-11-25T11:30:18Z</time>
      </trkpt>
      <trkpt lat="41.326177" lon="1.064907">
        <ele>1115.05</ele>
        <time>2018-11-25T11:30:24Z</time>
      </trkpt>
      <trkpt lat="41.326175" lon="1.064842">
        <ele>1116.07</ele>
        <time>2018-11-25T11:30:27Z</time>
      </trkpt>
      <trkpt lat="41.326176" lon="1.064793">
        <ele>1116.34</ele>
        <time>2018-11-25T11:30:29Z</time>
      </trkpt>
      <trkpt lat="41.326188" lon="1.064747">
        <ele>1117.05</ele>
        <time>2018-11-25T11:30:31Z</time>
      </trkpt>
      <trkpt lat="41.326220" lon="1.064705">
        <ele>1117.04</ele>
        <time>2018-11-25T11:30:33Z</time>
      </trkpt>
      <trkpt lat="41.326250" lon="1.064659">
        <ele>1118.08</ele>
        <time>2018-11-25T11:30:36Z</time>
      </trkpt>
      <trkpt lat="41.326276" lon="1.064621">
        <ele>1120.04</ele>
        <time>2018-11-25T11:30:40Z</time>
      </trkpt>
      <trkpt lat="41.326270" lon="1.064564">
        <ele>1120.09</ele>
        <time>2018-11-25T11:30:44Z</time>
      </trkpt>
      <trkpt lat="41.326267" lon="1.064509">
        <ele>1120.01</ele>
        <time>2018-11-25T11:30:46Z</time>
      </trkpt>
      <trkpt lat="41.326253" lon="1.064466">
        <ele>1120.32</ele>
        <time>2018-11-25T11:30:48Z</time>
      </trkpt>
      <trkpt lat="41.326232" lon="1.064413">
        <ele>1121.10</ele>
        <time>2018-11-25T11:30:51Z</time>
      </trkpt>
      <trkpt lat="41.326228" lon="1.064363">
        <ele>1121.12</ele>
        <time>2018-11-25T11:30:56Z</time>
      </trkpt>
      <trkpt lat="41.326245" lon="1.064320">
        <ele>1122.02</ele>
        <time>2018-11-25T11:31:00Z</time>
      </trkpt>
      <trkpt lat="41.326286" lon="1.064227">
        <ele>1122.15</ele>
        <time>2018-11-25T11:31:05Z</time>
      </trkpt>
      <trkpt lat="41.326246" lon="1.064157">
        <ele>1121.07</ele>
        <time>2018-11-25T11:35:40Z</time>
      </trkpt>
      <trkpt lat="41.326206" lon="1.064125">
        <ele>1121.16</ele>
        <time>2018-11-25T11:35:42Z</time>
      </trkpt>
      <trkpt lat="41.326168" lon="1.064097">
        <ele>1122.12</ele>
        <time>2018-11-25T11:35:44Z</time>
      </trkpt>
      <trkpt lat="41.326129" lon="1.064069">
        <ele>1123.07</ele>
        <time>2018-11-25T11:35:46Z</time>
      </trkpt>
      <trkpt lat="41.326106" lon="1.064011">
        <ele>1123.04</ele>
        <time>2018-11-25T11:35:48Z</time>
      </trkpt>
      <trkpt lat="41.326097" lon="1.063951">
        <ele>1123.04</ele>
        <time>2018-11-25T11:35:50Z</time>
      </trkpt>
      <trkpt lat="41.326084" lon="1.063877">
        <ele>1123.08</ele>
        <time>2018-11-25T11:35:52Z</time>
      </trkpt>
      <trkpt lat="41.326073" lon="1.063807">
        <ele>1123.05</ele>
        <time>2018-11-25T11:35:54Z</time>
      </trkpt>
      <trkpt lat="41.326059" lon="1.063741">
        <ele>1124.01</ele>
        <time>2018-11-25T11:35:56Z</time>
      </trkpt>
      <trkpt lat="41.326061" lon="1.063667">
        <ele>1124.01</ele>
        <time>2018-11-25T11:35:58Z</time>
      </trkpt>
      <trkpt lat="41.326057" lon="1.063586">
        <ele>1124.09</ele>
        <time>2018-11-25T11:36:00Z</time>
      </trkpt>
      <trkpt lat="41.326061" lon="1.063511">
        <ele>1124.04</ele>
        <time>2018-11-25T11:36:02Z</time>
      </trkpt>
      <trkpt lat="41.326059" lon="1.063437">
        <ele>1123.04</ele>
        <time>2018-11-25T11:36:04Z</time>
      </trkpt>
      <trkpt lat="41.326057" lon="1.063360">
        <ele>1123.05</ele>
        <time>2018-11-25T11:36:06Z</time>
      </trkpt>
      <trkpt lat="41.326050" lon="1.063292">
        <ele>1123.02</ele>
        <time>2018-11-25T11:36:08Z</time>
      </trkpt>
      <trkpt lat="41.326054" lon="1.063224">
        <ele>1123.07</ele>
        <time>2018-11-25T11:36:10Z</time>
      </trkpt>
      <trkpt lat="41.326042" lon="1.063162">
        <ele>1123.19</ele>
        <time>2018-11-25T11:36:12Z</time>
      </trkpt>
      <trkpt lat="41.326035" lon="1.063087">
        <ele>1124.07</ele>
        <time>2018-11-25T11:36:14Z</time>
      </trkpt>
      <trkpt lat="41.326029" lon="1.063016">
        <ele>1125.02</ele>
        <time>2018-11-25T11:36:16Z</time>
      </trkpt>
      <trkpt lat="41.326025" lon="1.062942">
        <ele>1125.17</ele>
        <time>2018-11-25T11:36:18Z</time>
      </trkpt>
      <trkpt lat="41.326019" lon="1.062868">
        <ele>1126.01</ele>
        <time>2018-11-25T11:36:20Z</time>
      </trkpt>
      <trkpt lat="41.326012" lon="1.062792">
        <ele>1126.02</ele>
        <time>2018-11-25T11:36:22Z</time>
      </trkpt>
      <trkpt lat="41.326005" lon="1.062722">
        <ele>1126.25</ele>
        <time>2018-11-25T11:36:24Z</time>
      </trkpt>
      <trkpt lat="41.326000" lon="1.062645">
        <ele>1127.10</ele>
        <time>2018-11-25T11:36:26Z</time>
      </trkpt>
      <trkpt lat="41.325992" lon="1.062572">
        <ele>1128.03</ele>
        <time>2018-11-25T11:36:28Z</time>
      </trkpt>
      <trkpt lat="41.325983" lon="1.062498">
        <ele>1128.28</ele>
        <time>2018-11-25T11:36:30Z</time>
      </trkpt>
      <trkpt lat="41.325977" lon="1.062420">
        <ele>1129.07</ele>
        <time>2018-11-25T11:36:32Z</time>
      </trkpt>
      <trkpt lat="41.325961" lon="1.062347">
        <ele>1129.02</ele>
        <time>2018-11-25T11:36:34Z</time>
      </trkpt>
      <trkpt lat="41.325941" lon="1.062271">
        <ele>1129.19</ele>
        <time>2018-11-25T11:36:36Z</time>
      </trkpt>
      <trkpt lat="41.325920" lon="1.062195">
        <ele>1130.04</ele>
        <time>2018-11-25T11:36:38Z</time>
      </trkpt>
      <trkpt lat="41.325904" lon="1.062123">
        <ele>1130.02</ele>
        <time>2018-11-25T11:36:40Z</time>
      </trkpt>
      <trkpt lat="41.325886" lon="1.062050">
        <ele>1130.06</ele>
        <time>2018-11-25T11:36:42Z</time>
      </trkpt>
      <trkpt lat="41.325875" lon="1.061977">
        <ele>1129.01</ele>
        <time>2018-11-25T11:36:44Z</time>
      </trkpt>
      <trkpt lat="41.325873" lon="1.061906">
        <ele>1129.02</ele>
        <time>2018-11-25T11:36:46Z</time>
      </trkpt>
      <trkpt lat="41.325850" lon="1.061845">
        <ele>1130.01</ele>
        <time>2018-11-25T11:36:48Z</time>
      </trkpt>
      <trkpt lat="41.325825" lon="1.061785">
        <ele>1130.16</ele>
        <time>2018-11-25T11:36:50Z</time>
      </trkpt>
      <trkpt lat="41.325798" lon="1.061721">
        <ele>1131.08</ele>
        <time>2018-11-25T11:36:52Z</time>
      </trkpt>
      <trkpt lat="41.325773" lon="1.061669">
        <ele>1131.08</ele>
        <time>2018-11-25T11:36:54Z</time>
      </trkpt>
      <trkpt lat="41.325740" lon="1.061620">
        <ele>1131.36</ele>
        <time>2018-11-25T11:36:56Z</time>
      </trkpt>
      <trkpt lat="41.325706" lon="1.061580">
        <ele>1132.02</ele>
        <time>2018-11-25T11:36:58Z</time>
      </trkpt>
      <trkpt lat="41.325676" lon="1.061539">
        <ele>1132.01</ele>
        <time>2018-11-25T11:37:00Z</time>
      </trkpt>
      <trkpt lat="41.325644" lon="1.061500">
        <ele>1132.05</ele>
        <time>2018-11-25T11:37:02Z</time>
      </trkpt>
      <trkpt lat="41.325611" lon="1.061458">
        <ele>1131.09</ele>
        <time>2018-11-25T11:37:04Z</time>
      </trkpt>
      <trkpt lat="41.325594" lon="1.061400">
        <ele>1131.28</ele>
        <time>2018-11-25T11:37:06Z</time>
      </trkpt>
      <trkpt lat="41.325588" lon="1.061341">
        <ele>1132.01</ele>
        <time>2018-11-25T11:37:08Z</time>
      </trkpt>
      <trkpt lat="41.325595" lon="1.061282">
        <ele>1131.71</ele>
        <time>2018-11-25T11:37:11Z</time>
      </trkpt>
      <trkpt lat="41.325595" lon="1.061219">
        <ele>1131.08</ele>
        <time>2018-11-25T11:37:15Z</time>
      </trkpt>
      <trkpt lat="41.325607" lon="1.061165">
        <ele>1131.04</ele>
        <time>2018-11-25T11:37:19Z</time>
      </trkpt>
      <trkpt lat="41.325605" lon="1.061108">
        <ele>1130.03</ele>
        <time>2018-11-25T11:37:24Z</time>
      </trkpt>
      <trkpt lat="41.325612" lon="1.061061">
        <ele>1129.02</ele>
        <time>2018-11-25T11:37:28Z</time>
      </trkpt>
      <trkpt lat="41.325620" lon="1.061010">
        <ele>1129.08</ele>
        <time>2018-11-25T11:37:32Z</time>
      </trkpt>
      <trkpt lat="41.325616" lon="1.060958">
        <ele>1129.08</ele>
        <time>2018-11-25T11:37:36Z</time>
      </trkpt>
      <trkpt lat="41.325607" lon="1.060905">
        <ele>1131.02</ele>
        <time>2018-11-25T11:37:41Z</time>
      </trkpt>
      <trkpt lat="41.325602" lon="1.060849">
        <ele>1130.02</ele>
        <time>2018-11-25T11:37:46Z</time>
      </trkpt>
      <trkpt lat="41.325614" lon="1.060801">
        <ele>1129.04</ele>
        <time>2018-11-25T11:37:50Z</time>
      </trkpt>
      <trkpt lat="41.325615" lon="1.060743">
        <ele>1129.09</ele>
        <time>2018-11-25T11:37:55Z</time>
      </trkpt>
      <trkpt lat="41.325621" lon="1.060695">
        <ele>1129.01</ele>
        <time>2018-11-25T11:37:58Z</time>
      </trkpt>
      <trkpt lat="41.325623" lon="1.060647">
        <ele>1128.03</ele>
        <time>2018-11-25T11:38:01Z</time>
      </trkpt>
      <trkpt lat="41.325606" lon="1.060601">
        <ele>1128.02</ele>
        <time>2018-11-25T11:38:05Z</time>
      </trkpt>
      <trkpt lat="41.325608" lon="1.060539">
        <ele>1128.10</ele>
        <time>2018-11-25T11:38:40Z</time>
      </trkpt>
      <trkpt lat="41.325630" lon="1.060579">
        <ele>1127.07</ele>
        <time>2018-11-25T11:38:47Z</time>
      </trkpt>
      <trkpt lat="41.325650" lon="1.060526">
        <ele>1127.02</ele>
        <time>2018-11-25T11:39:04Z</time>
      </trkpt>
      <trkpt lat="41.325632" lon="1.060462">
        <ele>1127.09</ele>
        <time>2018-11-25T11:39:07Z</time>
      </trkpt>
      <trkpt lat="41.325626" lon="1.060398">
        <ele>1127.01</ele>
        <time>2018-11-25T11:39:10Z</time>
      </trkpt>
      <trkpt lat="41.325618" lon="1.060306">
        <ele>1126.08</ele>
        <time>2018-11-25T11:39:14Z</time>
      </trkpt>
      <trkpt lat="41.325599" lon="1.060240">
        <ele>1126.07</ele>
        <time>2018-11-25T11:39:17Z</time>
      </trkpt>
      <trkpt lat="41.325613" lon="1.060136">
        <ele>1125.07</ele>
        <time>2018-11-25T11:39:21Z</time>
      </trkpt>
      <trkpt lat="41.325618" lon="1.060048">
        <ele>1125.01</ele>
        <time>2018-11-25T11:39:24Z</time>
      </trkpt>
      <trkpt lat="41.325581" lon="1.059890">
        <ele>1124.01</ele>
        <time>2018-11-25T11:39:30Z</time>
      </trkpt>
      <trkpt lat="41.325553" lon="1.059836">
        <ele>1123.01</ele>
        <time>2018-11-25T11:39:33Z</time>
      </trkpt>
      <trkpt lat="41.325533" lon="1.059792">
        <ele>1124.03</ele>
        <time>2018-11-25T11:39:39Z</time>
      </trkpt>
      <trkpt lat="41.325375" lon="1.059572">
        <ele>1123.01</ele>
        <time>2018-11-25T11:40:37Z</time>
      </trkpt>
      <trkpt lat="41.325347" lon="1.059537">
        <ele>1123.08</ele>
        <time>2018-11-25T11:40:42Z</time>
      </trkpt>
      <trkpt lat="41.325317" lon="1.059494">
        <ele>1122.22</ele>
        <time>2018-11-25T11:40:50Z</time>
      </trkpt>
      <trkpt lat="41.325293" lon="1.059457">
        <ele>1125.08</ele>
        <time>2018-11-25T11:42:14Z</time>
      </trkpt>
      <trkpt lat="41.325312" lon="1.059410">
        <ele>1123.08</ele>
        <time>2018-11-25T11:42:18Z</time>
      </trkpt>
      <trkpt lat="41.325320" lon="1.059366">
        <ele>1125.03</ele>
        <time>2018-11-25T11:42:26Z</time>
      </trkpt>
      <trkpt lat="41.325343" lon="1.059298">
        <ele>1125.08</ele>
        <time>2018-11-25T11:42:32Z</time>
      </trkpt>
      <trkpt lat="41.325359" lon="1.059265">
        <ele>1122.07</ele>
        <time>2018-11-25T11:42:37Z</time>
      </trkpt>
      <trkpt lat="41.325378" lon="1.059234">
        <ele>1125.04</ele>
        <time>2018-11-25T11:43:11Z</time>
      </trkpt>
      <trkpt lat="41.325422" lon="1.059223">
        <ele>1124.01</ele>
        <time>2018-11-25T11:43:15Z</time>
      </trkpt>
      <trkpt lat="41.325458" lon="1.059206">
        <ele>1124.02</ele>
        <time>2018-11-25T11:43:18Z</time>
      </trkpt>
      <trkpt lat="41.325491" lon="1.059194">
        <ele>1123.04</ele>
        <time>2018-11-25T11:43:21Z</time>
      </trkpt>
      <trkpt lat="41.325532" lon="1.059192">
        <ele>1123.08</ele>
        <time>2018-11-25T11:43:24Z</time>
      </trkpt>
      <trkpt lat="41.325588" lon="1.059204">
        <ele>1123.02</ele>
        <time>2018-11-25T11:43:27Z</time>
      </trkpt>
      <trkpt lat="41.325628" lon="1.059185">
        <ele>1124.02</ele>
        <time>2018-11-25T11:43:30Z</time>
      </trkpt>
      <trkpt lat="41.325646" lon="1.059143">
        <ele>1125.06</ele>
        <time>2018-11-25T11:43:32Z</time>
      </trkpt>
      <trkpt lat="41.325638" lon="1.059081">
        <ele>1125.02</ele>
        <time>2018-11-25T11:43:35Z</time>
      </trkpt>
      <trkpt lat="41.325626" lon="1.059021">
        <ele>1125.01</ele>
        <time>2018-11-25T11:43:38Z</time>
      </trkpt>
      <trkpt lat="41.325608" lon="1.058990">
        <ele>1122.09</ele>
        <time>2018-11-25T11:43:41Z</time>
      </trkpt>
      <trkpt lat="41.325601" lon="1.058971">
        <ele>1125.08</ele>
        <time>2018-11-25T11:44:16Z</time>
      </trkpt>
      <trkpt lat="41.325628" lon="1.059005">
        <ele>1125.04</ele>
        <time>2018-11-25T11:44:20Z</time>
      </trkpt>
      <trkpt lat="41.325663" lon="1.059019">
        <ele>1125.01</ele>
        <time>2018-11-25T11:44:23Z</time>
      </trkpt>
      <trkpt lat="41.325704" lon="1.059008">
        <ele>1123.01</ele>
        <time>2018-11-25T11:44:26Z</time>
      </trkpt>
      <trkpt lat="41.325741" lon="1.058985">
        <ele>1124.05</ele>
        <time>2018-11-25T11:44:29Z</time>
      </trkpt>
      <trkpt lat="41.325765" lon="1.058935">
        <ele>1124.05</ele>
        <time>2018-11-25T11:44:34Z</time>
      </trkpt>
      <trkpt lat="41.325802" lon="1.058905">
        <ele>1123.02</ele>
        <time>2018-11-25T11:45:01Z</time>
      </trkpt>
      <trkpt lat="41.325842" lon="1.058888">
        <ele>1122.07</ele>
        <time>2018-11-25T11:45:08Z</time>
      </trkpt>
      <trkpt lat="41.325871" lon="1.058856">
        <ele>1122.05</ele>
        <time>2018-11-25T11:45:11Z</time>
      </trkpt>
      <trkpt lat="41.325898" lon="1.058815">
        <ele>1122.07</ele>
        <time>2018-11-25T11:45:15Z</time>
      </trkpt>
      <trkpt lat="41.325928" lon="1.058801">
        <ele>1123.16</ele>
        <time>2018-11-25T11:45:32Z</time>
      </trkpt>
      <trkpt lat="41.325960" lon="1.058768">
        <ele>1124.07</ele>
        <time>2018-11-25T11:48:07Z</time>
      </trkpt>
      <trkpt lat="41.325924" lon="1.058784">
        <ele>1125.09</ele>
        <time>2018-11-25T11:48:12Z</time>
      </trkpt>
      <trkpt lat="41.325898" lon="1.058822">
        <ele>1125.10</ele>
        <time>2018-11-25T11:48:16Z</time>
      </trkpt>
      <trkpt lat="41.325872" lon="1.058853">
        <ele>1124.01</ele>
        <time>2018-11-25T11:48:20Z</time>
      </trkpt>
      <trkpt lat="41.325837" lon="1.058879">
        <ele>1125.02</ele>
        <time>2018-11-25T11:48:24Z</time>
      </trkpt>
      <trkpt lat="41.325797" lon="1.058873">
        <ele>1124.01</ele>
        <time>2018-11-25T11:48:30Z</time>
      </trkpt>
      <trkpt lat="41.325765" lon="1.058859">
        <ele>1122.04</ele>
        <time>2018-11-25T11:48:38Z</time>
      </trkpt>
      <trkpt lat="41.325745" lon="1.058848">
        <ele>1118.05</ele>
        <time>2018-11-25T11:48:50Z</time>
      </trkpt>
      <trkpt lat="41.325757" lon="1.058807">
        <ele>1115.84</ele>
        <time>2018-11-25T11:48:56Z</time>
      </trkpt>
      <trkpt lat="41.325753" lon="1.058759">
        <ele>1114.09</ele>
        <time>2018-11-25T11:49:01Z</time>
      </trkpt>
      <trkpt lat="41.325773" lon="1.058715">
        <ele>1114.10</ele>
        <time>2018-11-25T11:49:19Z</time>
      </trkpt>
      <trkpt lat="41.325791" lon="1.058674">
        <ele>1114.05</ele>
        <time>2018-11-25T11:49:49Z</time>
      </trkpt>
      <trkpt lat="41.325826" lon="1.058649">
        <ele>1114.08</ele>
        <time>2018-11-25T11:49:56Z</time>
      </trkpt>
      <trkpt lat="41.325858" lon="1.058618">
        <ele>1114.07</ele>
        <time>2018-11-25T11:50:01Z</time>
      </trkpt>
      <trkpt lat="41.325894" lon="1.058586">
        <ele>1113.09</ele>
        <time>2018-11-25T11:50:05Z</time>
      </trkpt>
      <trkpt lat="41.325919" lon="1.058540">
        <ele>1112.01</ele>
        <time>2018-11-25T11:50:10Z</time>
      </trkpt>
      <trkpt lat="41.325930" lon="1.058492">
        <ele>1111.02</ele>
        <time>2018-11-25T11:50:14Z</time>
      </trkpt>
      <trkpt lat="41.325925" lon="1.058445">
        <ele>1110.01</ele>
        <time>2018-11-25T11:50:19Z</time>
      </trkpt>
      <trkpt lat="41.325962" lon="1.058435">
        <ele>1111.06</ele>
        <time>2018-11-25T11:50:27Z</time>
      </trkpt>
      <trkpt lat="41.326003" lon="1.058393">
        <ele>1111.07</ele>
        <time>2018-11-25T11:50:30Z</time>
      </trkpt>
      <trkpt lat="41.326044" lon="1.058359">
        <ele>1111.18</ele>
        <time>2018-11-25T11:50:33Z</time>
      </trkpt>
      <trkpt lat="41.326076" lon="1.058318">
        <ele>1113.02</ele>
        <time>2018-11-25T11:50:40Z</time>
      </trkpt>
      <trkpt lat="41.326094" lon="1.058278">
        <ele>1112.05</ele>
        <time>2018-11-25T11:50:47Z</time>
      </trkpt>
      <trkpt lat="41.326134" lon="1.058264">
        <ele>1112.06</ele>
        <time>2018-11-25T11:50:51Z</time>
      </trkpt>
      <trkpt lat="41.326169" lon="1.058239">
        <ele>1110.06</ele>
        <time>2018-11-25T11:50:54Z</time>
      </trkpt>
      <trkpt lat="41.326206" lon="1.058214">
        <ele>1109.09</ele>
        <time>2018-11-25T11:50:58Z</time>
      </trkpt>
      <trkpt lat="41.326248" lon="1.058179">
        <ele>1107.77</ele>
        <time>2018-11-25T11:51:03Z</time>
      </trkpt>
      <trkpt lat="41.326278" lon="1.058151">
        <ele>1106.51</ele>
        <time>2018-11-25T11:51:06Z</time>
      </trkpt>
      <trkpt lat="41.326319" lon="1.058123">
        <ele>1106.01</ele>
        <time>2018-11-25T11:51:09Z</time>
      </trkpt>
      <trkpt lat="41.326346" lon="1.058091">
        <ele>1106.05</ele>
        <time>2018-11-25T11:51:11Z</time>
      </trkpt>
      <trkpt lat="41.326372" lon="1.058057">
        <ele>1106.03</ele>
        <time>2018-11-25T11:51:13Z</time>
      </trkpt>
      <trkpt lat="41.326386" lon="1.057997">
        <ele>1105.04</ele>
        <time>2018-11-25T11:51:16Z</time>
      </trkpt>
      <trkpt lat="41.326408" lon="1.057935">
        <ele>1105.08</ele>
        <time>2018-11-25T11:51:19Z</time>
      </trkpt>
      <trkpt lat="41.326436" lon="1.057880">
        <ele>1104.86</ele>
        <time>2018-11-25T11:51:22Z</time>
      </trkpt>
      <trkpt lat="41.326449" lon="1.057821">
        <ele>1104.08</ele>
        <time>2018-11-25T11:51:24Z</time>
      </trkpt>
      <trkpt lat="41.326469" lon="1.057774">
        <ele>1105.08</ele>
        <time>2018-11-25T11:51:26Z</time>
      </trkpt>
      <trkpt lat="41.326473" lon="1.057713">
        <ele>1105.07</ele>
        <time>2018-11-25T11:51:28Z</time>
      </trkpt>
      <trkpt lat="41.326470" lon="1.057640">
        <ele>1105.02</ele>
        <time>2018-11-25T11:51:30Z</time>
      </trkpt>
      <trkpt lat="41.326463" lon="1.057560">
        <ele>1105.08</ele>
        <time>2018-11-25T11:51:32Z</time>
      </trkpt>
      <trkpt lat="41.326444" lon="1.057482">
        <ele>1105.01</ele>
        <time>2018-11-25T11:51:34Z</time>
      </trkpt>
      <trkpt lat="41.326427" lon="1.057401">
        <ele>1105.01</ele>
        <time>2018-11-25T11:51:36Z</time>
      </trkpt>
      <trkpt lat="41.326423" lon="1.057331">
        <ele>1105.06</ele>
        <time>2018-11-25T11:51:38Z</time>
      </trkpt>
      <trkpt lat="41.326416" lon="1.057282">
        <ele>1105.03</ele>
        <time>2018-11-25T11:51:40Z</time>
      </trkpt>
      <trkpt lat="41.326446" lon="1.057224">
        <ele>1105.02</ele>
        <time>2018-11-25T11:51:42Z</time>
      </trkpt>
      <trkpt lat="41.326469" lon="1.057152">
        <ele>1105.08</ele>
        <time>2018-11-25T11:51:44Z</time>
      </trkpt>
      <trkpt lat="41.326486" lon="1.057094">
        <ele>1105.06</ele>
        <time>2018-11-25T11:51:46Z</time>
      </trkpt>
      <trkpt lat="41.326513" lon="1.057046">
        <ele>1105.07</ele>
        <time>2018-11-25T11:51:48Z</time>
      </trkpt>
      <trkpt lat="41.326546" lon="1.057005">
        <ele>1105.02</ele>
        <time>2018-11-25T11:51:50Z</time>
      </trkpt>
      <trkpt lat="41.326580" lon="1.056967">
        <ele>1106.04</ele>
        <time>2018-11-25T11:51:52Z</time>
      </trkpt>
      <trkpt lat="41.326610" lon="1.056919">
        <ele>1106.08</ele>
        <time>2018-11-25T11:51:55Z</time>
      </trkpt>
      <trkpt lat="41.326616" lon="1.056870">
        <ele>1105.72</ele>
        <time>2018-11-25T11:51:58Z</time>
      </trkpt>
      <trkpt lat="41.326612" lon="1.056821">
        <ele>1104.01</ele>
        <time>2018-11-25T11:52:01Z</time>
      </trkpt>
      <trkpt lat="41.326600" lon="1.056766">
        <ele>1104.02</ele>
        <time>2018-11-25T11:52:04Z</time>
      </trkpt>
      <trkpt lat="41.326590" lon="1.056725">
        <ele>1102.07</ele>
        <time>2018-11-25T11:52:07Z</time>
      </trkpt>
      <trkpt lat="41.326572" lon="1.056683">
        <ele>1101.09</ele>
        <time>2018-11-25T11:52:10Z</time>
      </trkpt>
      <trkpt lat="41.326566" lon="1.056633">
        <ele>1102.07</ele>
        <time>2018-11-25T11:52:13Z</time>
      </trkpt>
      <trkpt lat="41.326559" lon="1.056571">
        <ele>1103.01</ele>
        <time>2018-11-25T11:52:17Z</time>
      </trkpt>
      <trkpt lat="41.326536" lon="1.056526">
        <ele>1102.07</ele>
        <time>2018-11-25T11:52:20Z</time>
      </trkpt>
      <trkpt lat="41.326500" lon="1.056484">
        <ele>1101.04</ele>
        <time>2018-11-25T11:52:23Z</time>
      </trkpt>
      <trkpt lat="41.326487" lon="1.056427">
        <ele>1100.02</ele>
        <time>2018-11-25T11:52:27Z</time>
      </trkpt>
      <trkpt lat="41.326474" lon="1.056375">
        <ele>1101.04</ele>
        <time>2018-11-25T11:52:30Z</time>
      </trkpt>
      <trkpt lat="41.326473" lon="1.056321">
        <ele>1102.06</ele>
        <time>2018-11-25T11:52:33Z</time>
      </trkpt>
      <trkpt lat="41.326471" lon="1.056262">
        <ele>1102.09</ele>
        <time>2018-11-25T11:52:36Z</time>
      </trkpt>
      <trkpt lat="41.326461" lon="1.056197">
        <ele>1102.01</ele>
        <time>2018-11-25T11:52:39Z</time>
      </trkpt>
      <trkpt lat="41.326449" lon="1.056147">
        <ele>1103.01</ele>
        <time>2018-11-25T11:52:45Z</time>
      </trkpt>
      <trkpt lat="41.326429" lon="1.056100">
        <ele>1102.07</ele>
        <time>2018-11-25T11:52:50Z</time>
      </trkpt>
      <trkpt lat="41.326456" lon="1.056076">
        <ele>1100.02</ele>
        <time>2018-11-25T11:52:56Z</time>
      </trkpt>
      <trkpt lat="41.326442" lon="1.055941">
        <ele>1099.44</ele>
        <time>2018-11-25T11:53:48Z</time>
      </trkpt>
      <trkpt lat="41.326462" lon="1.055887">
        <ele>1099.06</ele>
        <time>2018-11-25T11:53:52Z</time>
      </trkpt>
      <trkpt lat="41.326466" lon="1.055831">
        <ele>1099.03</ele>
        <time>2018-11-25T11:53:55Z</time>
      </trkpt>
      <trkpt lat="41.326487" lon="1.055780">
        <ele>1098.07</ele>
        <time>2018-11-25T11:53:58Z</time>
      </trkpt>
      <trkpt lat="41.326495" lon="1.055727">
        <ele>1098.08</ele>
        <time>2018-11-25T11:54:01Z</time>
      </trkpt>
      <trkpt lat="41.326501" lon="1.055679">
        <ele>1098.06</ele>
        <time>2018-11-25T11:54:04Z</time>
      </trkpt>
      <trkpt lat="41.326515" lon="1.055633">
        <ele>1098.09</ele>
        <time>2018-11-25T11:54:07Z</time>
      </trkpt>
      <trkpt lat="41.326543" lon="1.055594">
        <ele>1098.04</ele>
        <time>2018-11-25T11:54:11Z</time>
      </trkpt>
      <trkpt lat="41.326558" lon="1.055551">
        <ele>1097.01</ele>
        <time>2018-11-25T11:54:19Z</time>
      </trkpt>
      <trkpt lat="41.326562" lon="1.055497">
        <ele>1097.01</ele>
        <time>2018-11-25T11:54:24Z</time>
      </trkpt>
      <trkpt lat="41.326583" lon="1.055458">
        <ele>1096.04</ele>
        <time>2018-11-25T11:54:27Z</time>
      </trkpt>
      <trkpt lat="41.326594" lon="1.055408">
        <ele>1096.01</ele>
        <time>2018-11-25T11:54:30Z</time>
      </trkpt>
      <trkpt lat="41.326607" lon="1.055349">
        <ele>1097.03</ele>
        <time>2018-11-25T11:54:34Z</time>
      </trkpt>
      <trkpt lat="41.326623" lon="1.055299">
        <ele>1096.06</ele>
        <time>2018-11-25T11:54:39Z</time>
      </trkpt>
      <trkpt lat="41.326640" lon="1.055242">
        <ele>1097.04</ele>
        <time>2018-11-25T11:54:43Z</time>
      </trkpt>
      <trkpt lat="41.326676" lon="1.055208">
        <ele>1096.07</ele>
        <time>2018-11-25T11:55:32Z</time>
      </trkpt>
      <trkpt lat="41.326652" lon="1.055170">
        <ele>1096.08</ele>
        <time>2018-11-25T11:55:37Z</time>
      </trkpt>
      <trkpt lat="41.326644" lon="1.055119">
        <ele>1096.08</ele>
        <time>2018-11-25T11:55:40Z</time>
      </trkpt>
      <trkpt lat="41.326634" lon="1.055059">
        <ele>1095.01</ele>
        <time>2018-11-25T11:55:48Z</time>
      </trkpt>
      <trkpt lat="41.326616" lon="1.055018">
        <ele>1093.82</ele>
        <time>2018-11-25T11:55:56Z</time>
      </trkpt>
      <trkpt lat="41.326598" lon="1.054975">
        <ele>1094.01</ele>
        <time>2018-11-25T11:56:02Z</time>
      </trkpt>
      <trkpt lat="41.326569" lon="1.054941">
        <ele>1093.01</ele>
        <time>2018-11-25T11:56:12Z</time>
      </trkpt>
      <trkpt lat="41.326578" lon="1.054899">
        <ele>1091.07</ele>
        <time>2018-11-25T11:56:27Z</time>
      </trkpt>
      <trkpt lat="41.326552" lon="1.054863">
        <ele>1088.52</ele>
        <time>2018-11-25T11:56:32Z</time>
      </trkpt>
      <trkpt lat="41.326555" lon="1.054813">
        <ele>1088.07</ele>
        <time>2018-11-25T11:56:37Z</time>
      </trkpt>
      <trkpt lat="41.326564" lon="1.054768">
        <ele>1087.09</ele>
        <time>2018-11-25T11:56:43Z</time>
      </trkpt>
      <trkpt lat="41.326577" lon="1.054718">
        <ele>1085.08</ele>
        <time>2018-11-25T11:58:59Z</time>
      </trkpt>
      <trkpt lat="41.326577" lon="1.054678">
        <ele>1082.08</ele>
        <time>2018-11-25T11:59:11Z</time>
      </trkpt>
      <trkpt lat="41.326597" lon="1.054640">
        <ele>1084.01</ele>
        <time>2018-11-25T11:59:59Z</time>
      </trkpt>
      <trkpt lat="41.326564" lon="1.054658">
        <ele>1084.05</ele>
        <time>2018-11-25T12:02:04Z</time>
      </trkpt>
      <trkpt lat="41.326553" lon="1.054616">
        <ele>1082.08</ele>
        <time>2018-11-25T12:02:59Z</time>
      </trkpt>
      <trkpt lat="41.326529" lon="1.054578">
        <ele>1082.09</ele>
        <time>2018-11-25T12:03:48Z</time>
      </trkpt>
      <trkpt lat="41.326567" lon="1.054564">
        <ele>1081.01</ele>
        <time>2018-11-25T12:03:59Z</time>
      </trkpt>
      <trkpt lat="41.326557" lon="1.054529">
        <ele>1079.62</ele>
        <time>2018-11-25T12:04:04Z</time>
      </trkpt>
      <trkpt lat="41.326562" lon="1.054481">
        <ele>1079.04</ele>
        <time>2018-11-25T12:04:09Z</time>
      </trkpt>
      <trkpt lat="41.326548" lon="1.054435">
        <ele>1077.08</ele>
        <time>2018-11-25T12:04:50Z</time>
      </trkpt>
      <trkpt lat="41.326551" lon="1.054398">
        <ele>1074.08</ele>
        <time>2018-11-25T12:04:56Z</time>
      </trkpt>
      <trkpt lat="41.326556" lon="1.054334">
        <ele>1073.06</ele>
        <time>2018-11-25T12:05:01Z</time>
      </trkpt>
      <trkpt lat="41.326552" lon="1.054290">
        <ele>1071.06</ele>
        <time>2018-11-25T12:05:06Z</time>
      </trkpt>
      <trkpt lat="41.326542" lon="1.054245">
        <ele>1070.06</ele>
        <time>2018-11-25T12:05:11Z</time>
      </trkpt>
      <trkpt lat="41.326554" lon="1.054193">
        <ele>1069.09</ele>
        <time>2018-11-25T12:05:15Z</time>
      </trkpt>
      <trkpt lat="41.326556" lon="1.054146">
        <ele>1068.02</ele>
        <time>2018-11-25T12:05:20Z</time>
      </trkpt>
      <trkpt lat="41.326554" lon="1.054102">
        <ele>1066.04</ele>
        <time>2018-11-25T12:05:24Z</time>
      </trkpt>
      <trkpt lat="41.326542" lon="1.054059">
        <ele>1065.51</ele>
        <time>2018-11-25T12:05:28Z</time>
      </trkpt>
      <trkpt lat="41.326544" lon="1.054002">
        <ele>1064.01</ele>
        <time>2018-11-25T12:05:33Z</time>
      </trkpt>
      <trkpt lat="41.326526" lon="1.053956">
        <ele>1062.03</ele>
        <time>2018-11-25T12:05:38Z</time>
      </trkpt>
      <trkpt lat="41.326524" lon="1.053913">
        <ele>1061.02</ele>
        <time>2018-11-25T12:05:42Z</time>
      </trkpt>
      <trkpt lat="41.326536" lon="1.053861">
        <ele>1059.10</ele>
        <time>2018-11-25T12:05:48Z</time>
      </trkpt>
      <trkpt lat="41.326453" lon="1.053604">
        <ele>1052.06</ele>
        <time>2018-11-25T12:06:21Z</time>
      </trkpt>
      <trkpt lat="41.326437" lon="1.053564">
        <ele>1051.57</ele>
        <time>2018-11-25T12:06:24Z</time>
      </trkpt>
      <trkpt lat="41.326416" lon="1.053524">
        <ele>1050.09</ele>
        <time>2018-11-25T12:06:28Z</time>
      </trkpt>
      <trkpt lat="41.326398" lon="1.053477">
        <ele>1050.08</ele>
        <time>2018-11-25T12:06:32Z</time>
      </trkpt>
      <trkpt lat="41.326385" lon="1.053433">
        <ele>1049.03</ele>
        <time>2018-11-25T12:06:37Z</time>
      </trkpt>
      <trkpt lat="41.326358" lon="1.053396">
        <ele>1047.85</ele>
        <time>2018-11-25T12:06:42Z</time>
      </trkpt>
      <trkpt lat="41.326344" lon="1.053348">
        <ele>1045.04</ele>
        <time>2018-11-25T12:06:48Z</time>
      </trkpt>
      <trkpt lat="41.326367" lon="1.053307">
        <ele>1045.09</ele>
        <time>2018-11-25T12:07:05Z</time>
      </trkpt>
      <trkpt lat="41.326349" lon="1.053266">
        <ele>1044.01</ele>
        <time>2018-11-25T12:07:13Z</time>
      </trkpt>
      <trkpt lat="41.326375" lon="1.053233">
        <ele>1043.01</ele>
        <time>2018-11-25T12:07:30Z</time>
      </trkpt>
      <trkpt lat="41.326369" lon="1.053182">
        <ele>1043.00</ele>
        <time>2018-11-25T12:07:39Z</time>
      </trkpt>
      <trkpt lat="41.326344" lon="1.053132">
        <ele>1043.05</ele>
        <time>2018-11-25T12:07:42Z</time>
      </trkpt>
      <trkpt lat="41.326326" lon="1.053070">
        <ele>1043.07</ele>
        <time>2018-11-25T12:07:45Z</time>
      </trkpt>
      <trkpt lat="41.326307" lon="1.053010">
        <ele>1042.08</ele>
        <time>2018-11-25T12:07:49Z</time>
      </trkpt>
      <trkpt lat="41.326292" lon="1.052956">
        <ele>1042.06</ele>
        <time>2018-11-25T12:07:52Z</time>
      </trkpt>
      <trkpt lat="41.326279" lon="1.052906">
        <ele>1042.03</ele>
        <time>2018-11-25T12:07:55Z</time>
      </trkpt>
      <trkpt lat="41.326273" lon="1.052859">
        <ele>1042.07</ele>
        <time>2018-11-25T12:07:58Z</time>
      </trkpt>
      <trkpt lat="41.326259" lon="1.052808">
        <ele>1041.08</ele>
        <time>2018-11-25T12:08:01Z</time>
      </trkpt>
      <trkpt lat="41.326248" lon="1.052753">
        <ele>1041.08</ele>
        <time>2018-11-25T12:08:04Z</time>
      </trkpt>
      <trkpt lat="41.326230" lon="1.052678">
        <ele>1041.01</ele>
        <time>2018-11-25T12:08:08Z</time>
      </trkpt>
      <trkpt lat="41.326212" lon="1.052623">
        <ele>1041.01</ele>
        <time>2018-11-25T12:08:11Z</time>
      </trkpt>
      <trkpt lat="41.326202" lon="1.052571">
        <ele>1041.03</ele>
        <time>2018-11-25T12:08:16Z</time>
      </trkpt>
      <trkpt lat="41.326191" lon="1.052516">
        <ele>1040.01</ele>
        <time>2018-11-25T12:08:23Z</time>
      </trkpt>
      <trkpt lat="41.326172" lon="1.052469">
        <ele>1039.88</ele>
        <time>2018-11-25T12:08:27Z</time>
      </trkpt>
      <trkpt lat="41.326161" lon="1.052415">
        <ele>1039.02</ele>
        <time>2018-11-25T12:08:30Z</time>
      </trkpt>
      <trkpt lat="41.326152" lon="1.052333">
        <ele>1038.74</ele>
        <time>2018-11-25T12:08:33Z</time>
      </trkpt>
      <trkpt lat="41.326181" lon="1.052333">
        <ele>1030.18</ele>
        <time>2017-09-17T10:31:49Z</time>
      </trkpt>
      <trkpt lat="41.326407" lon="1.052231">
        <ele>1022.01</ele>
        <time>2017-09-17T10:32:05Z</time>
      </trkpt>
      <trkpt lat="41.326460" lon="1.052118">
        <ele>1020.11</ele>
        <time>2017-09-17T10:32:13Z</time>
      </trkpt>
      <trkpt lat="41.326524" lon="1.052014">
        <ele>1017.24</ele>
        <time>2017-09-17T10:32:22Z</time>
      </trkpt>
      <trkpt lat="41.326641" lon="1.051657">
        <ele>1012.00</ele>
        <time>2017-09-17T10:32:38Z</time>
      </trkpt>
      <trkpt lat="41.326732" lon="1.051402">
        <ele>1008.02</ele>
        <time>2017-09-17T10:32:54Z</time>
      </trkpt>
      <trkpt lat="41.326888" lon="1.051213">
        <ele>1002.73</ele>
        <time>2017-09-17T10:33:10Z</time>
      </trkpt>
      <trkpt lat="41.326895" lon="1.051201">
        <ele>1002.77</ele>
        <time>2017-09-17T10:33:11Z</time>
      </trkpt>
      <trkpt lat="41.327143" lon="1.050976">
        <ele>995.58</ele>
        <time>2017-09-17T10:33:28Z</time>
      </trkpt>
      <trkpt lat="41.327245" lon="1.050915">
        <ele>992.26</ele>
        <time>2017-09-17T10:33:33Z</time>
      </trkpt>
      <trkpt lat="41.327409" lon="1.050732">
        <ele>985.45</ele>
        <time>2017-09-17T10:33:46Z</time>
      </trkpt>
      <trkpt lat="41.327474" lon="1.050508">
        <ele>980.26</ele>
        <time>2017-09-17T10:34:01Z</time>
      </trkpt>
      <trkpt lat="41.327452" lon="1.050259">
        <ele>975.86</ele>
        <time>2017-09-17T10:34:16Z</time>
      </trkpt>
      <trkpt lat="41.327441" lon="1.049954">
        <ele>972.91</ele>
        <time>2017-09-17T10:34:31Z</time>
      </trkpt>
      <trkpt lat="41.327469" lon="1.049666">
        <ele>972.91</ele>
        <time>2017-09-17T10:34:44Z</time>
      </trkpt>
      <trkpt lat="41.327535" lon="1.049541">
        <ele>972.98</ele>
        <time>2017-09-17T10:34:51Z</time>
      </trkpt>
      <trkpt lat="41.327710" lon="1.049414">
        <ele>972.91</ele>
        <time>2017-09-17T10:35:02Z</time>
      </trkpt>
      <trkpt lat="41.327878" lon="1.049254">
        <ele>972.07</ele>
        <time>2017-09-17T10:35:18Z</time>
      </trkpt>
      <trkpt lat="41.327969" lon="1.049106">
        <ele>968.65</ele>
        <time>2017-09-17T10:35:34Z</time>
      </trkpt>
      <trkpt lat="41.327929" lon="1.048932">
        <ele>966.72</ele>
        <time>2017-09-17T10:35:48Z</time>
      </trkpt>
      <trkpt lat="41.327835" lon="1.048756">
        <ele>960.08</ele>
        <time>2017-09-17T10:36:05Z</time>
      </trkpt>
      <trkpt lat="41.327830" lon="1.048623">
        <ele>958.58</ele>
        <time>2017-09-17T10:36:16Z</time>
      </trkpt>
      <trkpt lat="41.327791" lon="1.048419">
        <ele>956.14</ele>
        <time>2017-09-17T10:36:33Z</time>
      </trkpt>
      <trkpt lat="41.327797" lon="1.048099">
        <ele>952.82</ele>
        <time>2017-09-17T10:36:52Z</time>
      </trkpt>
      <trkpt lat="41.327838" lon="1.047842">
        <ele>946.01</ele>
        <time>2017-09-17T10:37:05Z</time>
      </trkpt>
      <trkpt lat="41.327937" lon="1.047461">
        <ele>935.92</ele>
        <time>2017-09-17T10:37:22Z</time>
      </trkpt>
      <trkpt lat="41.327957" lon="1.047248">
        <ele>925.81</ele>
        <time>2017-09-17T10:37:38Z</time>
      </trkpt>
      <trkpt lat="41.327951" lon="1.047231">
        <ele>925.42</ele>
        <time>2017-09-17T10:37:39Z</time>
      </trkpt>
      <trkpt lat="41.327812" lon="1.046928">
        <ele>921.03</ele>
        <time>2017-09-17T10:37:54Z</time>
      </trkpt>
      <trkpt lat="41.327831" lon="1.046767">
        <ele>919.65</ele>
        <time>2017-09-17T10:38:06Z</time>
      </trkpt>
      <trkpt lat="41.327837" lon="1.046746">
        <ele>919.69</ele>
        <time>2017-09-17T10:38:07Z</time>
      </trkpt>
      <trkpt lat="41.328050" lon="1.046609">
        <ele>915.78</ele>
        <time>2017-09-17T10:38:23Z</time>
      </trkpt>
      <trkpt lat="41.328319" lon="1.046629">
        <ele>913.37</ele>
        <time>2017-09-17T10:38:37Z</time>
      </trkpt>
      <trkpt lat="41.328425" lon="1.046642">
        <ele>912.47</ele>
        <time>2017-09-17T10:38:44Z</time>
      </trkpt>
      <trkpt lat="41.328691" lon="1.046708">
        <ele>910.57</ele>
        <time>2017-09-17T10:38:59Z</time>
      </trkpt>
      <trkpt lat="41.328933" lon="1.046708">
        <ele>905.75</ele>
        <time>2017-09-17T10:39:14Z</time>
      </trkpt>
      <trkpt lat="41.329200" lon="1.046802">
        <ele>900.49</ele>
        <time>2017-09-17T10:39:30Z</time>
      </trkpt>
      <trkpt lat="41.329273" lon="1.047001">
        <ele>897.52</ele>
        <time>2017-09-17T10:39:47Z</time>
      </trkpt>
      <trkpt lat="41.329386" lon="1.047333">
        <ele>892.71</ele>
        <time>2017-09-17T10:39:58Z</time>
      </trkpt>
      <trkpt lat="41.329471" lon="1.047385">
        <ele>890.37</ele>
        <time>2017-09-17T10:40:14Z</time>
      </trkpt>
      <trkpt lat="41.329556" lon="1.047433">
        <ele>888.81</ele>
        <time>2017-09-17T10:40:28Z</time>
      </trkpt>
      <trkpt lat="41.329566" lon="1.047479">
        <ele>892.24</ele>
        <time>2017-09-17T10:40:45Z</time>
      </trkpt>
      <trkpt lat="41.329589" lon="1.047513">
        <ele>897.03</ele>
        <time>2017-09-17T10:41:12Z</time>
      </trkpt>
      <trkpt lat="41.329585" lon="1.047546">
        <ele>895.62</ele>
        <time>2017-09-17T10:41:26Z</time>
      </trkpt>
      <trkpt lat="41.329625" lon="1.047650">
        <ele>891.77</ele>
        <time>2017-09-17T10:41:39Z</time>
      </trkpt>
      <trkpt lat="41.329635" lon="1.047656">
        <ele>891.23</ele>
        <time>2017-09-17T10:41:59Z</time>
      </trkpt>
      <trkpt lat="41.329635" lon="1.047657">
        <ele>891.29</ele>
        <time>2017-09-17T10:42:00Z</time>
      </trkpt>
      <trkpt lat="41.329632" lon="1.047702">
        <ele>891.27</ele>
        <time>2017-09-17T10:42:08Z</time>
      </trkpt>
      <trkpt lat="41.329571" lon="1.047814">
        <ele>892.28</ele>
        <time>2017-09-17T10:42:19Z</time>
      </trkpt>
      <trkpt lat="41.329594" lon="1.047906">
        <ele>894.61</ele>
        <time>2017-09-17T10:42:30Z</time>
      </trkpt>
      <trkpt lat="41.329619" lon="1.048034">
        <ele>895.61</ele>
        <time>2017-09-17T10:42:45Z</time>
      </trkpt>
      <trkpt lat="41.329751" lon="1.048745">
        <ele>881.62</ele>
        <time>2017-09-17T10:45:49Z</time>
      </trkpt>
      <trkpt lat="41.329832" lon="1.048803">
        <ele>892.72</ele>
        <time>2017-09-17T10:45:59Z</time>
      </trkpt>
      <trkpt lat="41.329835" lon="1.048739">
        <ele>894.62</ele>
        <time>2017-09-17T10:46:14Z</time>
      </trkpt>
      <trkpt lat="41.329865" lon="1.048766">
        <ele>901.38</ele>
        <time>2017-09-17T10:46:28Z</time>
      </trkpt>
      <trkpt lat="41.329884" lon="1.048838">
        <ele>900.84</ele>
        <time>2017-09-17T10:46:34Z</time>
      </trkpt>
      <trkpt lat="41.329898" lon="1.049119">
        <ele>899.96</ele>
        <time>2017-09-17T10:46:45Z</time>
      </trkpt>
      <trkpt lat="41.329995" lon="1.049476">
        <ele>898.06</ele>
        <time>2017-09-17T10:46:59Z</time>
      </trkpt>
      <trkpt lat="41.330276" lon="1.049892">
        <ele>892.26</ele>
        <time>2017-09-17T10:47:14Z</time>
      </trkpt>
      <trkpt lat="41.330412" lon="1.050146">
        <ele>887.92</ele>
        <time>2017-09-17T10:47:25Z</time>
      </trkpt>
      <trkpt lat="41.330477" lon="1.050383">
        <ele>886.98</ele>
        <time>2017-09-17T10:47:33Z</time>
      </trkpt>
      <trkpt lat="41.330417" lon="1.050686">
        <ele>883.51</ele>
        <time>2017-09-17T10:47:46Z</time>
      </trkpt>
      <trkpt lat="41.330644" lon="1.050736">
        <ele>878.71</ele>
        <time>2017-09-17T10:47:59Z</time>
      </trkpt>
      <trkpt lat="41.330720" lon="1.051020">
        <ele>875.43</ele>
        <time>2017-09-17T10:48:07Z</time>
      </trkpt>
      <trkpt lat="41.330697" lon="1.051499">
        <ele>873.97</ele>
        <time>2017-09-17T10:48:21Z</time>
      </trkpt>
      <trkpt lat="41.330682" lon="1.051583">
        <ele>873.58</ele>
        <time>2017-09-17T10:48:24Z</time>
      </trkpt>
      <trkpt lat="41.330577" lon="1.051665">
        <ele>872.09</ele>
        <time>2017-09-17T10:48:29Z</time>
      </trkpt>
      <trkpt lat="41.330480" lon="1.051879">
        <ele>870.62</ele>
        <time>2017-09-17T10:48:41Z</time>
      </trkpt>
      <trkpt lat="41.330736" lon="1.052080">
        <ele>869.65</ele>
        <time>2017-09-17T10:48:57Z</time>
      </trkpt>
      <trkpt lat="41.330868" lon="1.052405">
        <ele>868.27</ele>
        <time>2017-09-17T10:49:10Z</time>
      </trkpt>
      <trkpt lat="41.331015" lon="1.052756">
        <ele>867.72</ele>
        <time>2017-09-17T10:49:21Z</time>
      </trkpt>
      <trkpt lat="41.330988" lon="1.053094">
        <ele>867.29</ele>
        <time>2017-09-17T10:49:33Z</time>
      </trkpt>
      <trkpt lat="41.330991" lon="1.053150">
        <ele>867.24</ele>
        <time>2017-09-17T10:49:35Z</time>
      </trkpt>
      <trkpt lat="41.331027" lon="1.053256">
        <ele>866.73</ele>
        <time>2017-09-17T10:49:39Z</time>
      </trkpt>
      <trkpt lat="41.331100" lon="1.053749">
        <ele>865.81</ele>
        <time>2017-09-17T10:49:56Z</time>
      </trkpt>
      <trkpt lat="41.331132" lon="1.054136">
        <ele>864.89</ele>
        <time>2017-09-17T10:50:08Z</time>
      </trkpt>
      <trkpt lat="41.331134" lon="1.054529">
        <ele>864.32</ele>
        <time>2017-09-17T10:50:21Z</time>
      </trkpt>
      <trkpt lat="41.331263" lon="1.055000">
        <ele>863.42</ele>
        <time>2017-09-17T10:50:37Z</time>
      </trkpt>
      <trkpt lat="41.331260" lon="1.055351">
        <ele>862.93</ele>
        <time>2017-09-17T10:50:49Z</time>
      </trkpt>
      <trkpt lat="41.331228" lon="1.055679">
        <ele>862.43</ele>
        <time>2017-09-17T10:51:00Z</time>
      </trkpt>
      <trkpt lat="41.331218" lon="1.055799">
        <ele>862.44</ele>
        <time>2017-09-17T10:51:08Z</time>
      </trkpt>
      <trkpt lat="41.331406" lon="1.055770">
        <ele>861.09</ele>
        <time>2017-09-17T10:51:22Z</time>
      </trkpt>
      <trkpt lat="41.331684" lon="1.055732">
        <ele>860.60</ele>
        <time>2017-09-17T10:51:37Z</time>
      </trkpt>
      <trkpt lat="41.331977" lon="1.055977">
        <ele>857.63</ele>
        <time>2017-09-17T10:51:52Z</time>
      </trkpt>
      <trkpt lat="41.332199" lon="1.056260">
        <ele>853.79</ele>
        <time>2017-09-17T10:52:02Z</time>
      </trkpt>
      <trkpt lat="41.332332" lon="1.056541">
        <ele>852.81</ele>
        <time>2017-09-17T10:52:15Z</time>
      </trkpt>
      <trkpt lat="41.332384" lon="1.056679">
        <ele>852.31</ele>
        <time>2017-09-17T10:52:23Z</time>
      </trkpt>
      <trkpt lat="41.332496" lon="1.056719">
        <ele>851.81</ele>
        <time>2017-09-17T10:52:29Z</time>
      </trkpt>
      <trkpt lat="41.332748" lon="1.056691">
        <ele>850.42</ele>
        <time>2017-09-17T10:52:43Z</time>
      </trkpt>
      <trkpt lat="41.332843" lon="1.056642">
        <ele>849.95</ele>
        <time>2017-09-17T10:52:48Z</time>
      </trkpt>
      <trkpt lat="41.333112" lon="1.056560">
        <ele>848.98</ele>
        <time>2017-09-17T10:53:00Z</time>
      </trkpt>
      <trkpt lat="41.333234" lon="1.056436">
        <ele>848.55</ele>
        <time>2017-09-17T10:53:07Z</time>
      </trkpt>
      <trkpt lat="41.333551" lon="1.056151">
        <ele>847.55</ele>
        <time>2017-09-17T10:53:21Z</time>
      </trkpt>
      <trkpt lat="41.333878" lon="1.056063">
        <ele>845.16</ele>
        <time>2017-09-17T10:53:35Z</time>
      </trkpt>
      <trkpt lat="41.333930" lon="1.056087">
        <ele>844.17</ele>
        <time>2017-09-17T10:53:38Z</time>
      </trkpt>
      <trkpt lat="41.333751" lon="1.055799">
        <ele>840.32</ele>
        <time>2017-09-17T10:53:51Z</time>
      </trkpt>
      <trkpt lat="41.333464" lon="1.055702">
        <ele>836.97</ele>
        <time>2017-09-17T10:54:04Z</time>
      </trkpt>
      <trkpt lat="41.333193" lon="1.055583">
        <ele>833.11</ele>
        <time>2017-09-17T10:54:19Z</time>
      </trkpt>
      <trkpt lat="41.332913" lon="1.055704">
        <ele>831.21</ele>
        <time>2017-09-17T10:54:32Z</time>
      </trkpt>
      <trkpt lat="41.332818" lon="1.055741">
        <ele>830.25</ele>
        <time>2017-09-17T10:54:37Z</time>
      </trkpt>
      <trkpt lat="41.332665" lon="1.055498">
        <ele>828.39</ele>
        <time>2017-09-17T10:54:52Z</time>
      </trkpt>
      <trkpt lat="41.332905" lon="1.055477">
        <ele>826.90</ele>
        <time>2017-09-17T10:55:07Z</time>
      </trkpt>
      <trkpt lat="41.333127" lon="1.055256">
        <ele>825.48</ele>
        <time>2017-09-17T10:55:22Z</time>
      </trkpt>
      <trkpt lat="41.333353" lon="1.055002">
        <ele>824.48</ele>
        <time>2017-09-17T10:55:37Z</time>
      </trkpt>
      <trkpt lat="41.333590" lon="1.054675">
        <ele>822.51</ele>
        <time>2017-09-17T10:55:52Z</time>
      </trkpt>
      <trkpt lat="41.333725" lon="1.054642">
        <ele>821.56</ele>
        <time>2017-09-17T10:55:58Z</time>
      </trkpt>
      <trkpt lat="41.334178" lon="1.054463">
        <ele>822.05</ele>
        <time>2017-09-17T10:56:14Z</time>
      </trkpt>
      <trkpt lat="41.334482" lon="1.054303">
        <ele>821.57</ele>
        <time>2017-09-17T10:56:25Z</time>
      </trkpt>
      <trkpt lat="41.334606" lon="1.054251">
        <ele>820.14</ele>
        <time>2017-09-17T10:56:31Z</time>
      </trkpt>
      <trkpt lat="41.334787" lon="1.054564">
        <ele>814.33</ele>
        <time>2017-09-17T10:56:43Z</time>
      </trkpt>
      <trkpt lat="41.334929" lon="1.054747">
        <ele>811.41</ele>
        <time>2017-09-17T10:56:54Z</time>
      </trkpt>
      <trkpt lat="41.334982" lon="1.054707">
        <ele>809.56</ele>
        <time>2017-09-17T10:56:59Z</time>
      </trkpt>
      <trkpt lat="41.335082" lon="1.054316">
        <ele>804.72</ele>
        <time>2017-09-17T10:57:15Z</time>
      </trkpt>
      <trkpt lat="41.335094" lon="1.054305">
        <ele>804.23</ele>
        <time>2017-09-17T10:57:16Z</time>
      </trkpt>
      <trkpt lat="41.335178" lon="1.054205">
        <ele>803.34</ele>
        <time>2017-09-17T10:57:22Z</time>
      </trkpt>
      <trkpt lat="41.335476" lon="1.053858">
        <ele>800.47</ele>
        <time>2017-09-17T10:57:38Z</time>
      </trkpt>
      <trkpt lat="41.335601" lon="1.053705">
        <ele>799.50</ele>
        <time>2017-09-17T10:57:48Z</time>
      </trkpt>
      <trkpt lat="41.335703" lon="1.053727">
        <ele>798.52</ele>
        <time>2017-09-17T10:57:54Z</time>
      </trkpt>
      <trkpt lat="41.336074" lon="1.053794">
        <ele>796.55</ele>
        <time>2017-09-17T10:58:09Z</time>
      </trkpt>
      <trkpt lat="41.336475" lon="1.053905">
        <ele>793.79</ele>
        <time>2017-09-17T10:58:24Z</time>
      </trkpt>
      <trkpt lat="41.336689" lon="1.054200">
        <ele>789.88</ele>
        <time>2017-09-17T10:58:37Z</time>
      </trkpt>
      <trkpt lat="41.336892" lon="1.054475">
        <ele>786.92</ele>
        <time>2017-09-17T10:58:49Z</time>
      </trkpt>
      <trkpt lat="41.337101" lon="1.054752">
        <ele>784.01</ele>
        <time>2017-09-17T10:59:01Z</time>
      </trkpt>
      <trkpt lat="41.337288" lon="1.055066">
        <ele>780.72</ele>
        <time>2017-09-17T10:59:15Z</time>
      </trkpt>
      <trkpt lat="41.337438" lon="1.055362">
        <ele>778.82</ele>
        <time>2017-09-17T10:59:28Z</time>
      </trkpt>
    </trkseg>
  </trk>
</gpx>
